<?xml version='1.0' encoding='UTF-8'?>
<gpx version="1.1" creator="https://www.komoot.de" xmlns="http://www.topografix.com/GPX/1/1" xmlns:xsi="http://www.w3.org/2001/XMLSchema-instance" xsi:schemaLocation="http://www.topografix.com/GPX/1/1 http://www.topografix.com/GPX/1/1/gpx.xsd">
  <metadata>
    <name>MiTour26-München_2-9-2026</name>
    <author>
      <link href="https://www.komoot.de">
        <text>komoot</text>
        <type>text/html</type>
      </link>
    </author>
  </metadata>
  <wpt lat="48.279155" lon="11.691851">
    <name>Isarsteg Dietersheim</name>
    <sym>Bridge</sym>
  </wpt>
  <wpt lat="48.238180" lon="11.673462">
    <name>Radweg unter der B 471-Brücke an der Isar</name>
    <sym>Bridge</sym>
  </wpt>
  <wpt lat="48.230315" lon="11.664138">
    <name>Isarauen</name>
    <sym>Flag, Blue</sym>
  </wpt>
  <wpt lat="48.221009" lon="11.655042">
    <name>Isar-Stromschnellen</name>
    <sym>Flag, Blue</sym>
  </wpt>
  <wpt lat="48.169372" lon="11.619888">
    <name>Blick auf den Mittlere-Isar-Kanal von der Brücke</name>
    <sym>Flag, Blue</sym>
  </wpt>
  <wpt lat="48.156656" lon="11.606246">
    <name>Isarradweg</name>
    <sym>Flag, Blue</sym>
  </wpt>
  <wpt lat="48.151705" lon="11.593949">
    <name>Knotenpunkt RadlVorrang-Netz</name>
    <sym>Flag, Blue</sym>
  </wpt>
  <wpt lat="48.152625" lon="11.591863">
    <name>Chinesischer Turm und Biergarten (Englischer Garten)</name>
    <sym>Flag, Blue</sym>
  </wpt>
  <wpt lat="48.153923" lon="11.592036">
    <name>Rumfordschlössl, Englischer Garten</name>
    <sym>Flag, Blue</sym>
  </wpt>
  <wpt lat="48.158700" lon="11.597607">
    <name>Englischer Garten am See</name>
    <sym>Flag, Blue</sym>
  </wpt>
  <wpt lat="48.169055" lon="11.602076">
    <name>Amsterdamer Straße (Geheimtipp)</name>
    <sym>Bridge</sym>
  </wpt>
  <wpt lat="48.174637" lon="11.617858">
    <name>Nördlicher Englischer Garten</name>
    <sym>Flag, Blue</sym>
  </wpt>
  <wpt lat="48.181729" lon="11.623646">
    <name>Teich im Englischen Garten</name>
    <sym>Flag, Blue</sym>
  </wpt>
  <wpt lat="48.185976" lon="11.620233">
    <name>Biergarten Aumeister</name>
    <sym>Restaurant</sym>
  </wpt>
  <wpt lat="48.192185" lon="11.619021">
    <name>Metropoltheater München</name>
    <sym>Flag, Blue</sym>
  </wpt>
  <wpt lat="48.211001" lon="11.615044">
    <name>HeideHaus</name>
    <sym>Picnic Area</sym>
  </wpt>
  <wpt lat="48.214189" lon="11.613964">
    <name>Rastplatz in der Südlichen Fröttmaninger Heide</name>
    <sym>Picnic Area</sym>
  </wpt>
  <wpt lat="48.224367" lon="11.600354">
    <name>Modellflugplatz Südliche Fröttmaninger Heide</name>
    <sym>Flag, Blue</sym>
  </wpt>
  <trk>
    <name>MiTour26-München_2-9-2026</name>
    <type>touring_bicycle</type>
    <trkseg>
      <trkpt lat="48.297663" lon="11.622676">
        <ele>467.915223</ele>
        <time>2026-08-31T20:44:22.642Z</time>
      </trkpt>
      <trkpt lat="48.297705" lon="11.623032">
        <ele>467.915223</ele>
        <time>2026-08-31T20:44:39.366Z</time>
      </trkpt>
      <trkpt lat="48.297749" lon="11.623406">
        <ele>467.915223</ele>
        <time>2026-08-31T20:44:56.912Z</time>
      </trkpt>
      <trkpt lat="48.297759" lon="11.623480">
        <ele>467.915223</ele>
        <time>2026-08-31T20:45:00.428Z</time>
      </trkpt>
      <trkpt lat="48.297666" lon="11.623601">
        <ele>467.915223</ele>
        <time>2026-08-31T20:45:02.918Z</time>
      </trkpt>
      <trkpt lat="48.297509" lon="11.623672">
        <ele>467.915223</ele>
        <time>2026-08-31T20:45:06.214Z</time>
      </trkpt>
      <trkpt lat="48.297455" lon="11.623696">
        <ele>467.915223</ele>
        <time>2026-08-31T20:45:07.345Z</time>
      </trkpt>
      <trkpt lat="48.297317" lon="11.623808">
        <ele>467.849385</ele>
        <time>2026-08-31T20:45:10.523Z</time>
      </trkpt>
      <trkpt lat="48.297203" lon="11.623995">
        <ele>467.772344</ele>
        <time>2026-08-31T20:45:13.967Z</time>
      </trkpt>
      <trkpt lat="48.297175" lon="11.624040">
        <ele>467.753629</ele>
        <time>2026-08-31T20:45:14.800Z</time>
      </trkpt>
      <trkpt lat="48.296787" lon="11.624263">
        <ele>467.563971</ele>
        <time>2026-08-31T20:45:23.403Z</time>
      </trkpt>
      <trkpt lat="48.296821" lon="11.624519">
        <ele>467.484678</ele>
        <time>2026-08-31T20:45:26.991Z</time>
      </trkpt>
      <trkpt lat="48.296985" lon="11.625124">
        <ele>467.286243</ele>
        <time>2026-08-31T20:45:36.021Z</time>
      </trkpt>
      <trkpt lat="48.297245" lon="11.625955">
        <ele>467.106192</ele>
        <time>2026-08-31T20:45:48.710Z</time>
      </trkpt>
      <trkpt lat="48.297409" lon="11.626560">
        <ele>467.134068</ele>
        <time>2026-08-31T20:45:58.177Z</time>
      </trkpt>
      <trkpt lat="48.297553" lon="11.627166">
        <ele>467.161526</ele>
        <time>2026-08-31T20:46:07.893Z</time>
      </trkpt>
      <trkpt lat="48.297613" lon="11.627406">
        <ele>467.172466</ele>
        <time>2026-08-31T20:46:11.794Z</time>
      </trkpt>
      <trkpt lat="48.297690" lon="11.627726">
        <ele>467.186986</ele>
        <time>2026-08-31T20:46:16.922Z</time>
      </trkpt>
      <trkpt lat="48.297464" lon="11.628089">
        <ele>467.208200</ele>
        <time>2026-08-31T20:46:26.905Z</time>
      </trkpt>
      <trkpt lat="48.297392" lon="11.628208">
        <ele>467.271125</ele>
        <time>2026-08-31T20:46:30.223Z</time>
      </trkpt>
      <trkpt lat="48.297128" lon="11.628638">
        <ele>467.542221</ele>
        <time>2026-08-31T20:46:42.583Z</time>
      </trkpt>
      <trkpt lat="48.296939" lon="11.628979">
        <ele>467.747855</ele>
        <time>2026-08-31T20:46:52.102Z</time>
      </trkpt>
      <trkpt lat="48.295843" lon="11.630870">
        <ele>468.800671</ele>
        <time>2026-08-31T20:47:46.561Z</time>
      </trkpt>
      <trkpt lat="48.295775" lon="11.630987">
        <ele>468.855105</ele>
        <time>2026-08-31T20:47:49.924Z</time>
      </trkpt>
      <trkpt lat="48.295387" lon="11.631652">
        <ele>469.165020</ele>
        <time>2026-08-31T20:48:04.736Z</time>
      </trkpt>
      <trkpt lat="48.295196" lon="11.632109">
        <ele>469.354121</ele>
        <time>2026-08-31T20:48:12.964Z</time>
      </trkpt>
      <trkpt lat="48.295105" lon="11.632466">
        <ele>469.294300</ele>
        <time>2026-08-31T20:48:18.307Z</time>
      </trkpt>
      <trkpt lat="48.295057" lon="11.632796">
        <ele>469.121611</ele>
        <time>2026-08-31T20:48:22.899Z</time>
      </trkpt>
      <trkpt lat="48.295046" lon="11.633196">
        <ele>468.916946</ele>
        <time>2026-08-31T20:48:28.219Z</time>
      </trkpt>
      <trkpt lat="48.295061" lon="11.634119">
        <ele>468.444944</ele>
        <time>2026-08-31T20:48:40.034Z</time>
      </trkpt>
      <trkpt lat="48.295030" lon="11.634334">
        <ele>468.332479</ele>
        <time>2026-08-31T20:48:42.791Z</time>
      </trkpt>
      <trkpt lat="48.294886" lon="11.634846">
        <ele>468.048303</ele>
        <time>2026-08-31T20:48:49.766Z</time>
      </trkpt>
      <trkpt lat="48.294775" lon="11.635091">
        <ele>467.980568</ele>
        <time>2026-08-31T20:48:53.515Z</time>
      </trkpt>
      <trkpt lat="48.294646" lon="11.635289">
        <ele>467.929943</ele>
        <time>2026-08-31T20:48:57.140Z</time>
      </trkpt>
      <trkpt lat="48.293876" lon="11.636003">
        <ele>467.681522</ele>
        <time>2026-08-31T20:49:16.622Z</time>
      </trkpt>
      <trkpt lat="48.293504" lon="11.636443">
        <ele>467.551545</ele>
        <time>2026-08-31T20:49:27.418Z</time>
      </trkpt>
      <trkpt lat="48.293289" lon="11.636721">
        <ele>467.565490</ele>
        <time>2026-08-31T20:49:33.997Z</time>
      </trkpt>
      <trkpt lat="48.292870" lon="11.637493">
        <ele>467.663777</ele>
        <time>2026-08-31T20:49:49.582Z</time>
      </trkpt>
      <trkpt lat="48.292695" lon="11.637905">
        <ele>467.712000</ele>
        <time>2026-08-31T20:49:57.027Z</time>
      </trkpt>
      <trkpt lat="48.292505" lon="11.638386">
        <ele>467.767185</ele>
        <time>2026-08-31T20:50:05.319Z</time>
      </trkpt>
      <trkpt lat="48.291552" lon="11.641115">
        <ele>467.794895</ele>
        <time>2026-08-31T20:50:51.030Z</time>
      </trkpt>
      <trkpt lat="48.291246" lon="11.641868">
        <ele>467.792446</ele>
        <time>2026-08-31T20:51:03.785Z</time>
      </trkpt>
      <trkpt lat="48.291012" lon="11.642434">
        <ele>467.790596</ele>
        <time>2026-08-31T20:51:13.485Z</time>
      </trkpt>
      <trkpt lat="48.289606" lon="11.645724">
        <ele>468.066335</ele>
        <time>2026-08-31T20:52:12.634Z</time>
      </trkpt>
      <trkpt lat="48.289280" lon="11.646589">
        <ele>468.184936</ele>
        <time>2026-08-31T20:52:28.362Z</time>
      </trkpt>
      <trkpt lat="48.288620" lon="11.648742">
        <ele>468.411639</ele>
        <time>2026-08-31T20:53:04.056Z</time>
      </trkpt>
      <trkpt lat="48.288469" lon="11.649233">
        <ele>468.436232</ele>
        <time>2026-08-31T20:53:12.085Z</time>
      </trkpt>
      <trkpt lat="48.288247" lon="11.650118">
        <ele>468.479234</ele>
        <time>2026-08-31T20:53:26.242Z</time>
      </trkpt>
      <trkpt lat="48.287773" lon="11.651807">
        <ele>468.386109</ele>
        <time>2026-08-31T20:53:53.278Z</time>
      </trkpt>
      <trkpt lat="48.287178" lon="11.653786">
        <ele>468.367807</ele>
        <time>2026-08-31T20:54:24.133Z</time>
      </trkpt>
      <trkpt lat="48.286363" lon="11.656272">
        <ele>468.802916</ele>
        <time>2026-08-31T20:55:07.944Z</time>
      </trkpt>
      <trkpt lat="48.286100" lon="11.656999">
        <ele>469.014929</ele>
        <time>2026-08-31T20:55:20.879Z</time>
      </trkpt>
      <trkpt lat="48.285767" lon="11.657818">
        <ele>469.260839</ele>
        <time>2026-08-31T20:55:35.995Z</time>
      </trkpt>
      <trkpt lat="48.285283" lon="11.658870">
        <ele>469.717059</ele>
        <time>2026-08-31T20:55:56.724Z</time>
      </trkpt>
      <trkpt lat="48.284537" lon="11.660355">
        <ele>470.332790</ele>
        <time>2026-08-31T20:56:27.110Z</time>
      </trkpt>
      <trkpt lat="48.284172" lon="11.661156">
        <ele>470.571115</ele>
        <time>2026-08-31T20:56:42.879Z</time>
      </trkpt>
      <trkpt lat="48.283856" lon="11.661922">
        <ele>470.792367</ele>
        <time>2026-08-31T20:56:57.259Z</time>
      </trkpt>
      <trkpt lat="48.283612" lon="11.662564">
        <ele>470.830568</ele>
        <time>2026-08-31T20:57:08.146Z</time>
      </trkpt>
      <trkpt lat="48.283491" lon="11.662782">
        <ele>470.781486</ele>
        <time>2026-08-31T20:57:12.190Z</time>
      </trkpt>
      <trkpt lat="48.283446" lon="11.662930">
        <ele>470.753353</ele>
        <time>2026-08-31T20:57:14.459Z</time>
      </trkpt>
      <trkpt lat="48.283409" lon="11.663152">
        <ele>470.713785</ele>
        <time>2026-08-31T20:57:17.658Z</time>
      </trkpt>
      <trkpt lat="48.283099" lon="11.664183">
        <ele>470.518176</ele>
        <time>2026-08-31T20:57:33.288Z</time>
      </trkpt>
      <trkpt lat="48.282892" lon="11.664996">
        <ele>470.426246</ele>
        <time>2026-08-31T20:57:45.423Z</time>
      </trkpt>
      <trkpt lat="48.282681" lon="11.665978">
        <ele>470.438562</ele>
        <time>2026-08-31T20:58:00.777Z</time>
      </trkpt>
      <trkpt lat="48.282044" lon="11.669345">
        <ele>470.821189</ele>
        <time>2026-08-31T20:58:54.110Z</time>
      </trkpt>
      <trkpt lat="48.281943" lon="11.669891">
        <ele>470.918481</ele>
        <time>2026-08-31T20:59:03.217Z</time>
      </trkpt>
      <trkpt lat="48.281850" lon="11.670414">
        <ele>471.039224</ele>
        <time>2026-08-31T20:59:11.981Z</time>
      </trkpt>
      <trkpt lat="48.281905" lon="11.670437">
        <ele>471.058358</ele>
        <time>2026-08-31T20:59:13.737Z</time>
      </trkpt>
      <trkpt lat="48.281865" lon="11.670737">
        <ele>471.126600</ele>
        <time>2026-08-31T20:59:18.666Z</time>
      </trkpt>
      <trkpt lat="48.281776" lon="11.671380">
        <ele>471.273085</ele>
        <time>2026-08-31T20:59:29.252Z</time>
      </trkpt>
      <trkpt lat="48.281758" lon="11.671510">
        <ele>471.302701</ele>
        <time>2026-08-31T20:59:31.388Z</time>
      </trkpt>
      <trkpt lat="48.281661" lon="11.672133">
        <ele>471.445408</ele>
        <time>2026-08-31T20:59:41.223Z</time>
      </trkpt>
      <trkpt lat="48.281569" lon="11.672391">
        <ele>471.510694</ele>
        <time>2026-08-31T20:59:45.537Z</time>
      </trkpt>
      <trkpt lat="48.281486" lon="11.672500">
        <ele>471.523656</ele>
        <time>2026-08-31T20:59:47.956Z</time>
      </trkpt>
      <trkpt lat="48.281330" lon="11.672653">
        <ele>471.533730</ele>
        <time>2026-08-31T20:59:52.047Z</time>
      </trkpt>
      <trkpt lat="48.281256" lon="11.672780">
        <ele>471.539805</ele>
        <time>2026-08-31T20:59:54.506Z</time>
      </trkpt>
      <trkpt lat="48.281194" lon="11.673125">
        <ele>471.552665</ele>
        <time>2026-08-31T20:59:59.752Z</time>
      </trkpt>
      <trkpt lat="48.281131" lon="11.673473">
        <ele>471.565644</ele>
        <time>2026-08-31T21:00:05.170Z</time>
      </trkpt>
      <trkpt lat="48.281024" lon="11.673695">
        <ele>471.575509</ele>
        <time>2026-08-31T21:00:09.306Z</time>
      </trkpt>
      <trkpt lat="48.280925" lon="11.673832">
        <ele>471.582787</ele>
        <time>2026-08-31T21:00:12.340Z</time>
      </trkpt>
      <trkpt lat="48.281003" lon="11.674629">
        <ele>471.611778</ele>
        <time>2026-08-31T21:00:24.343Z</time>
      </trkpt>
      <trkpt lat="48.281028" lon="11.674876">
        <ele>471.592944</ele>
        <time>2026-08-31T21:00:28.161Z</time>
      </trkpt>
      <trkpt lat="48.281044" lon="11.675045">
        <ele>471.560757</ele>
        <time>2026-08-31T21:00:30.751Z</time>
      </trkpt>
      <trkpt lat="48.281144" lon="11.676093">
        <ele>471.361133</ele>
        <time>2026-08-31T21:00:46.498Z</time>
      </trkpt>
      <trkpt lat="48.281168" lon="11.676340">
        <ele>471.314067</ele>
        <time>2026-08-31T21:00:50.025Z</time>
      </trkpt>
      <trkpt lat="48.281121" lon="11.676693">
        <ele>471.246189</ele>
        <time>2026-08-31T21:00:54.892Z</time>
      </trkpt>
      <trkpt lat="48.281215" lon="11.676710">
        <ele>471.219363</ele>
        <time>2026-08-31T21:00:56.803Z</time>
      </trkpt>
      <trkpt lat="48.281443" lon="11.676745">
        <ele>471.154427</ele>
        <time>2026-08-31T21:01:01.339Z</time>
      </trkpt>
      <trkpt lat="48.281445" lon="11.677232">
        <ele>471.015424</ele>
        <time>2026-08-31T21:01:07.764Z</time>
      </trkpt>
      <trkpt lat="48.281434" lon="11.677284">
        <ele>470.994129</ele>
        <time>2026-08-31T21:01:08.489Z</time>
      </trkpt>
      <trkpt lat="48.281208" lon="11.678197">
        <ele>470.613937</ele>
        <time>2026-08-31T21:01:21.454Z</time>
      </trkpt>
      <trkpt lat="48.281203" lon="11.678214">
        <ele>470.606683</ele>
        <time>2026-08-31T21:01:21.701Z</time>
      </trkpt>
      <trkpt lat="48.281093" lon="11.678554">
        <ele>470.459132</ele>
        <time>2026-08-31T21:01:26.759Z</time>
      </trkpt>
      <trkpt lat="48.280898" lon="11.679122">
        <ele>470.209682</ele>
        <time>2026-08-31T21:01:35.346Z</time>
      </trkpt>
      <trkpt lat="48.280839" lon="11.679372">
        <ele>470.106154</ele>
        <time>2026-08-31T21:01:39.025Z</time>
      </trkpt>
      <trkpt lat="48.280718" lon="11.679760">
        <ele>470.044504</ele>
        <time>2026-08-31T21:01:45.824Z</time>
      </trkpt>
      <trkpt lat="48.280663" lon="11.680227">
        <ele>470.032531</ele>
        <time>2026-08-31T21:01:53.580Z</time>
      </trkpt>
      <trkpt lat="48.280569" lon="11.682099">
        <ele>469.985139</ele>
        <time>2026-08-31T21:02:24.755Z</time>
      </trkpt>
      <trkpt lat="48.280558" lon="11.682337">
        <ele>469.978128</ele>
        <time>2026-08-31T21:02:28.750Z</time>
      </trkpt>
      <trkpt lat="48.280427" lon="11.683443">
        <ele>469.943486</ele>
        <time>2026-08-31T21:02:47.307Z</time>
      </trkpt>
      <trkpt lat="48.280414" lon="11.686255">
        <ele>469.657843</ele>
        <time>2026-08-31T21:03:32.516Z</time>
      </trkpt>
      <trkpt lat="48.280401" lon="11.686767">
        <ele>469.569721</ele>
        <time>2026-08-31T21:03:40.732Z</time>
      </trkpt>
      <trkpt lat="48.280314" lon="11.687753">
        <ele>469.236512</ele>
        <time>2026-08-31T21:03:56.242Z</time>
      </trkpt>
      <trkpt lat="48.280228" lon="11.687902">
        <ele>469.052848</ele>
        <time>2026-08-31T21:03:59.183Z</time>
      </trkpt>
      <trkpt lat="48.280135" lon="11.687948">
        <ele>468.915847</ele>
        <time>2026-08-31T21:04:01.345Z</time>
      </trkpt>
      <trkpt lat="48.280037" lon="11.687909">
        <ele>468.773991</ele>
        <time>2026-08-31T21:04:03.561Z</time>
      </trkpt>
      <trkpt lat="48.279968" lon="11.688066">
        <ele>468.598787</ele>
        <time>2026-08-31T21:04:07.770Z</time>
      </trkpt>
      <trkpt lat="48.279949" lon="11.688280">
        <ele>468.397744</ele>
        <time>2026-08-31T21:04:12.518Z</time>
      </trkpt>
      <trkpt lat="48.280034" lon="11.688765">
        <ele>467.930710</ele>
        <time>2026-08-31T21:04:23.313Z</time>
      </trkpt>
      <trkpt lat="48.280036" lon="11.689022">
        <ele>467.691374</ele>
        <time>2026-08-31T21:04:28.709Z</time>
      </trkpt>
      <trkpt lat="48.280131" lon="11.689282">
        <ele>467.415169</ele>
        <time>2026-08-31T21:04:34.879Z</time>
      </trkpt>
      <trkpt lat="48.280166" lon="11.689556">
        <ele>467.155362</ele>
        <time>2026-08-31T21:04:40.627Z</time>
      </trkpt>
      <trkpt lat="48.280506" lon="11.690366">
        <ele>466.711941</ele>
        <time>2026-08-31T21:05:00.766Z</time>
      </trkpt>
      <trkpt lat="48.280581" lon="11.690626">
        <ele>466.628690</ele>
        <time>2026-08-31T21:05:07.120Z</time>
      </trkpt>
      <trkpt lat="48.280579" lon="11.690812">
        <ele>466.574038</ele>
        <time>2026-08-31T21:05:11.440Z</time>
      </trkpt>
      <trkpt lat="48.280481" lon="11.691084">
        <ele>466.483169</ele>
        <time>2026-08-31T21:05:18.950Z</time>
      </trkpt>
      <trkpt lat="48.280456" lon="11.691317">
        <ele>466.413833</ele>
        <time>2026-08-31T21:05:25.001Z</time>
      </trkpt>
      <trkpt lat="48.280153" lon="11.691322">
        <ele>466.280062</ele>
        <time>2026-08-31T21:05:33.511Z</time>
      </trkpt>
      <trkpt lat="48.279771" lon="11.691461">
        <ele>466.117983</ele>
        <time>2026-08-31T21:05:44.420Z</time>
      </trkpt>
      <trkpt lat="48.279463" lon="11.691525">
        <ele>466.067866</ele>
        <time>2026-08-31T21:05:52.678Z</time>
      </trkpt>
      <trkpt lat="48.279201" lon="11.691507">
        <ele>466.025591</ele>
        <time>2026-08-31T21:05:59.584Z</time>
      </trkpt>
      <trkpt lat="48.279204" lon="11.691571">
        <ele>466.018709</ele>
        <time>2026-08-31T21:06:00.542Z</time>
      </trkpt>
      <trkpt lat="48.279214" lon="11.691846">
        <ele>465.989166</ele>
        <time>2026-08-31T21:06:04.635Z</time>
      </trkpt>
      <trkpt lat="48.279241" lon="11.692614">
        <ele>465.906669</ele>
        <time>2026-08-31T21:06:15.099Z</time>
      </trkpt>
      <trkpt lat="48.279238" lon="11.692710">
        <ele>465.896360</ele>
        <time>2026-08-31T21:06:16.475Z</time>
      </trkpt>
      <trkpt lat="48.279026" lon="11.692654">
        <ele>465.861665</ele>
        <time>2026-08-31T21:06:21.041Z</time>
      </trkpt>
      <trkpt lat="48.277936" lon="11.692761">
        <ele>465.570435</ele>
        <time>2026-08-31T21:06:45.778Z</time>
      </trkpt>
      <trkpt lat="48.277178" lon="11.692768">
        <ele>465.353848</ele>
        <time>2026-08-31T21:07:05.328Z</time>
      </trkpt>
      <trkpt lat="48.276650" lon="11.692716">
        <ele>465.162541</ele>
        <time>2026-08-31T21:07:18.294Z</time>
      </trkpt>
      <trkpt lat="48.276270" lon="11.692601">
        <ele>465.014147</ele>
        <time>2026-08-31T21:07:27.357Z</time>
      </trkpt>
      <trkpt lat="48.275863" lon="11.692436">
        <ele>464.852767</ele>
        <time>2026-08-31T21:07:36.793Z</time>
      </trkpt>
      <trkpt lat="48.274899" lon="11.691895">
        <ele>464.869103</ele>
        <time>2026-08-31T21:08:00.051Z</time>
      </trkpt>
      <trkpt lat="48.274112" lon="11.691363">
        <ele>465.320702</ele>
        <time>2026-08-31T21:08:23.368Z</time>
      </trkpt>
      <trkpt lat="48.273237" lon="11.690683">
        <ele>466.131921</ele>
        <time>2026-08-31T21:08:53.789Z</time>
      </trkpt>
      <trkpt lat="48.272749" lon="11.690429">
        <ele>466.706251</ele>
        <time>2026-08-31T21:09:09.332Z</time>
      </trkpt>
      <trkpt lat="48.272678" lon="11.690343">
        <ele>466.807671</ele>
        <time>2026-08-31T21:09:11.993Z</time>
      </trkpt>
      <trkpt lat="48.272633" lon="11.690241">
        <ele>466.898248</ele>
        <time>2026-08-31T21:09:15.348Z</time>
      </trkpt>
      <trkpt lat="48.272481" lon="11.689956">
        <ele>467.168567</ele>
        <time>2026-08-31T21:09:25.281Z</time>
      </trkpt>
      <trkpt lat="48.272091" lon="11.689526">
        <ele>467.629027</ele>
        <time>2026-08-31T21:09:44.533Z</time>
      </trkpt>
      <trkpt lat="48.270728" lon="11.687900">
        <ele>468.417032</ele>
        <time>2026-08-31T21:10:30.412Z</time>
      </trkpt>
      <trkpt lat="48.269531" lon="11.686477">
        <ele>468.650477</ele>
        <time>2026-08-31T21:11:08.929Z</time>
      </trkpt>
      <trkpt lat="48.267732" lon="11.684080">
        <ele>468.607206</ele>
        <time>2026-08-31T21:12:08.618Z</time>
      </trkpt>
      <trkpt lat="48.266799" lon="11.682792">
        <ele>468.381167</ele>
        <time>2026-08-31T21:12:38.502Z</time>
      </trkpt>
      <trkpt lat="48.266207" lon="11.682165">
        <ele>468.475048</ele>
        <time>2026-08-31T21:12:56.299Z</time>
      </trkpt>
      <trkpt lat="48.265808" lon="11.681797">
        <ele>468.569210</ele>
        <time>2026-08-31T21:13:08.388Z</time>
      </trkpt>
      <trkpt lat="48.265124" lon="11.681257">
        <ele>468.729837</ele>
        <time>2026-08-31T21:13:28.783Z</time>
      </trkpt>
      <trkpt lat="48.264648" lon="11.680966">
        <ele>468.922338</ele>
        <time>2026-08-31T21:13:42.133Z</time>
      </trkpt>
      <trkpt lat="48.264137" lon="11.680827">
        <ele>469.116864</ele>
        <time>2026-08-31T21:13:55.380Z</time>
      </trkpt>
      <trkpt lat="48.263783" lon="11.680780">
        <ele>469.249983</ele>
        <time>2026-08-31T21:14:04.808Z</time>
      </trkpt>
      <trkpt lat="48.263431" lon="11.680642">
        <ele>469.386253</ele>
        <time>2026-08-31T21:14:14.508Z</time>
      </trkpt>
      <trkpt lat="48.263188" lon="11.680586">
        <ele>469.518820</ele>
        <time>2026-08-31T21:14:21.062Z</time>
      </trkpt>
      <trkpt lat="48.262952" lon="11.680611">
        <ele>469.649131</ele>
        <time>2026-08-31T21:14:27.380Z</time>
      </trkpt>
      <trkpt lat="48.262665" lon="11.680524">
        <ele>469.810397</ele>
        <time>2026-08-31T21:14:35.244Z</time>
      </trkpt>
      <trkpt lat="48.261798" lon="11.680372">
        <ele>470.291182</ele>
        <time>2026-08-31T21:14:59.066Z</time>
      </trkpt>
      <trkpt lat="48.261273" lon="11.680431">
        <ele>470.528494</ele>
        <time>2026-08-31T21:15:12.991Z</time>
      </trkpt>
      <trkpt lat="48.260602" lon="11.680742">
        <ele>470.812484</ele>
        <time>2026-08-31T21:15:31.645Z</time>
      </trkpt>
      <trkpt lat="48.259952" lon="11.681176">
        <ele>471.100158</ele>
        <time>2026-08-31T21:15:50.281Z</time>
      </trkpt>
      <trkpt lat="48.259378" lon="11.681684">
        <ele>471.158175</ele>
        <time>2026-08-31T21:16:06.935Z</time>
      </trkpt>
      <trkpt lat="48.258697" lon="11.682208">
        <ele>471.215218</ele>
        <time>2026-08-31T21:16:25.687Z</time>
      </trkpt>
      <trkpt lat="48.258134" lon="11.682574">
        <ele>471.313137</ele>
        <time>2026-08-31T21:16:41.197Z</time>
      </trkpt>
      <trkpt lat="48.257590" lon="11.682866">
        <ele>471.492678</ele>
        <time>2026-08-31T21:16:56.130Z</time>
      </trkpt>
      <trkpt lat="48.256722" lon="11.683494">
        <ele>471.792111</ele>
        <time>2026-08-31T21:17:21.674Z</time>
      </trkpt>
      <trkpt lat="48.256215" lon="11.683755">
        <ele>471.936473</ele>
        <time>2026-08-31T21:17:35.585Z</time>
      </trkpt>
      <trkpt lat="48.255956" lon="11.683965">
        <ele>472.014859</ele>
        <time>2026-08-31T21:17:43.353Z</time>
      </trkpt>
      <trkpt lat="48.255687" lon="11.684133">
        <ele>472.092446</ele>
        <time>2026-08-31T21:17:50.979Z</time>
      </trkpt>
      <trkpt lat="48.255557" lon="11.684578">
        <ele>472.178614</ele>
        <time>2026-08-31T21:18:03.218Z</time>
      </trkpt>
      <trkpt lat="48.255484" lon="11.684737">
        <ele>472.212861</ele>
        <time>2026-08-31T21:18:08.084Z</time>
      </trkpt>
      <trkpt lat="48.255401" lon="11.684716">
        <ele>472.235277</ele>
        <time>2026-08-31T21:18:10.165Z</time>
      </trkpt>
      <trkpt lat="48.255215" lon="11.684742">
        <ele>472.284433</ele>
        <time>2026-08-31T21:18:14.827Z</time>
      </trkpt>
      <trkpt lat="48.254993" lon="11.684591">
        <ele>472.334085</ele>
        <time>2026-08-31T21:18:20.807Z</time>
      </trkpt>
      <trkpt lat="48.254693" lon="11.684527">
        <ele>472.395821</ele>
        <time>2026-08-31T21:18:28.153Z</time>
      </trkpt>
      <trkpt lat="48.253419" lon="11.684711">
        <ele>472.668930</ele>
        <time>2026-08-31T21:19:00.579Z</time>
      </trkpt>
      <trkpt lat="48.252536" lon="11.684723">
        <ele>473.140014</ele>
        <time>2026-08-31T21:19:25.615Z</time>
      </trkpt>
      <trkpt lat="48.252029" lon="11.684597">
        <ele>473.414167</ele>
        <time>2026-08-31T21:19:39.901Z</time>
      </trkpt>
      <trkpt lat="48.251886" lon="11.684562">
        <ele>473.491462</ele>
        <time>2026-08-31T21:19:43.708Z</time>
      </trkpt>
      <trkpt lat="48.251326" lon="11.684423">
        <ele>473.564976</ele>
        <time>2026-08-31T21:19:57.608Z</time>
      </trkpt>
      <trkpt lat="48.250501" lon="11.684071">
        <ele>473.457774</ele>
        <time>2026-08-31T21:20:17.515Z</time>
      </trkpt>
      <trkpt lat="48.249444" lon="11.683515">
        <ele>473.610276</ele>
        <time>2026-08-31T21:20:45.107Z</time>
      </trkpt>
      <trkpt lat="48.248924" lon="11.683116">
        <ele>473.861274</ele>
        <time>2026-08-31T21:21:00.844Z</time>
      </trkpt>
      <trkpt lat="48.248346" lon="11.682595">
        <ele>474.151034</ele>
        <time>2026-08-31T21:21:19.585Z</time>
      </trkpt>
      <trkpt lat="48.247130" lon="11.681101">
        <ele>474.696933</ele>
        <time>2026-08-31T21:22:01.848Z</time>
      </trkpt>
      <trkpt lat="48.246083" lon="11.679285">
        <ele>474.425117</ele>
        <time>2026-08-31T21:22:38.824Z</time>
      </trkpt>
      <trkpt lat="48.245937" lon="11.678860">
        <ele>474.341825</ele>
        <time>2026-08-31T21:22:46.400Z</time>
      </trkpt>
      <trkpt lat="48.245756" lon="11.678548">
        <ele>474.355342</ele>
        <time>2026-08-31T21:22:53.192Z</time>
      </trkpt>
      <trkpt lat="48.245291" lon="11.677923">
        <ele>474.538856</ele>
        <time>2026-08-31T21:23:09.378Z</time>
      </trkpt>
      <trkpt lat="48.244230" lon="11.676176">
        <ele>474.898858</ele>
        <time>2026-08-31T21:23:51.168Z</time>
      </trkpt>
      <trkpt lat="48.243573" lon="11.675594">
        <ele>474.981333</ele>
        <time>2026-08-31T21:24:09.763Z</time>
      </trkpt>
      <trkpt lat="48.243223" lon="11.675425">
        <ele>475.021084</ele>
        <time>2026-08-31T21:24:18.553Z</time>
      </trkpt>
      <trkpt lat="48.241994" lon="11.674912">
        <ele>475.217400</ele>
        <time>2026-08-31T21:24:50.251Z</time>
      </trkpt>
      <trkpt lat="48.240819" lon="11.674301">
        <ele>475.752799</ele>
        <time>2026-08-31T21:25:23.155Z</time>
      </trkpt>
      <trkpt lat="48.240279" lon="11.674210">
        <ele>476.142205</ele>
        <time>2026-08-31T21:25:38.003Z</time>
      </trkpt>
      <trkpt lat="48.239331" lon="11.674091">
        <ele>476.724836</ele>
        <time>2026-08-31T21:26:05.821Z</time>
      </trkpt>
      <trkpt lat="48.238874" lon="11.673904">
        <ele>476.909017</ele>
        <time>2026-08-31T21:26:18.877Z</time>
      </trkpt>
      <trkpt lat="48.238382" lon="11.673701">
        <ele>477.107418</ele>
        <time>2026-08-31T21:26:31.775Z</time>
      </trkpt>
      <trkpt lat="48.238358" lon="11.673599">
        <ele>477.135434</ele>
        <time>2026-08-31T21:26:33.463Z</time>
      </trkpt>
      <trkpt lat="48.238178" lon="11.673467">
        <ele>477.213328</ele>
        <time>2026-08-31T21:26:38.468Z</time>
      </trkpt>
      <trkpt lat="48.238130" lon="11.673432">
        <ele>477.234077</ele>
        <time>2026-08-31T21:26:39.753Z</time>
      </trkpt>
      <trkpt lat="48.237880" lon="11.673370">
        <ele>477.304928</ele>
        <time>2026-08-31T21:26:45.847Z</time>
      </trkpt>
      <trkpt lat="48.237479" lon="11.673306">
        <ele>477.294433</ele>
        <time>2026-08-31T21:26:55.267Z</time>
      </trkpt>
      <trkpt lat="48.237205" lon="11.673263">
        <ele>477.287263</ele>
        <time>2026-08-31T21:27:01.819Z</time>
      </trkpt>
      <trkpt lat="48.236666" lon="11.673113">
        <ele>477.272997</ele>
        <time>2026-08-31T21:27:15.442Z</time>
      </trkpt>
      <trkpt lat="48.236349" lon="11.673001">
        <ele>477.264521</ele>
        <time>2026-08-31T21:27:23.619Z</time>
      </trkpt>
      <trkpt lat="48.235960" lon="11.672847">
        <ele>477.401846</ele>
        <time>2026-08-31T21:27:34.066Z</time>
      </trkpt>
      <trkpt lat="48.235329" lon="11.672505">
        <ele>477.829089</ele>
        <time>2026-08-31T21:27:50.899Z</time>
      </trkpt>
      <trkpt lat="48.234995" lon="11.672261">
        <ele>478.065646</ele>
        <time>2026-08-31T21:28:00.526Z</time>
      </trkpt>
      <trkpt lat="48.233815" lon="11.671209">
        <ele>479.950705</ele>
        <time>2026-08-31T21:28:43.169Z</time>
      </trkpt>
      <trkpt lat="48.233594" lon="11.670981">
        <ele>480.444625</ele>
        <time>2026-08-31T21:28:52.479Z</time>
      </trkpt>
      <trkpt lat="48.233542" lon="11.670921">
        <ele>480.565427</ele>
        <time>2026-08-31T21:28:54.618Z</time>
      </trkpt>
      <trkpt lat="48.233190" lon="11.670500">
        <ele>481.394389</ele>
        <time>2026-08-31T21:29:15.976Z</time>
      </trkpt>
      <trkpt lat="48.232892" lon="11.670107">
        <ele>481.628360</ele>
        <time>2026-08-31T21:29:27.900Z</time>
      </trkpt>
      <trkpt lat="48.232570" lon="11.669664">
        <ele>481.450368</ele>
        <time>2026-08-31T21:29:38.093Z</time>
      </trkpt>
      <trkpt lat="48.232580" lon="11.669520">
        <ele>481.411066</ele>
        <time>2026-08-31T21:29:40.354Z</time>
      </trkpt>
      <trkpt lat="48.232576" lon="11.669360">
        <ele>481.367602</ele>
        <time>2026-08-31T21:29:42.763Z</time>
      </trkpt>
      <trkpt lat="48.232544" lon="11.669184">
        <ele>481.318078</ele>
        <time>2026-08-31T21:29:45.447Z</time>
      </trkpt>
      <trkpt lat="48.232488" lon="11.669032">
        <ele>481.270925</ele>
        <time>2026-08-31T21:29:47.970Z</time>
      </trkpt>
      <trkpt lat="48.232203" lon="11.668481">
        <ele>481.081552</ele>
        <time>2026-08-31T21:29:57.838Z</time>
      </trkpt>
      <trkpt lat="48.231794" lon="11.667704">
        <ele>480.170988</ele>
        <time>2026-08-31T21:30:10.595Z</time>
      </trkpt>
      <trkpt lat="48.231582" lon="11.667249">
        <ele>479.459884</ele>
        <time>2026-08-31T21:30:17.735Z</time>
      </trkpt>
      <trkpt lat="48.231512" lon="11.667024">
        <ele>479.141854</ele>
        <time>2026-08-31T21:30:21.075Z</time>
      </trkpt>
      <trkpt lat="48.231482" lon="11.666804">
        <ele>478.854264</ele>
        <time>2026-08-31T21:30:24.093Z</time>
      </trkpt>
      <trkpt lat="48.231472" lon="11.666564">
        <ele>478.546302</ele>
        <time>2026-08-31T21:30:27.335Z</time>
      </trkpt>
      <trkpt lat="48.231415" lon="11.666187">
        <ele>478.051208</ele>
        <time>2026-08-31T21:30:32.530Z</time>
      </trkpt>
      <trkpt lat="48.231250" lon="11.665663">
        <ele>477.454104</ele>
        <time>2026-08-31T21:30:40.329Z</time>
      </trkpt>
      <trkpt lat="48.230919" lon="11.664938">
        <ele>477.076765</ele>
        <time>2026-08-31T21:30:52.712Z</time>
      </trkpt>
      <trkpt lat="48.230695" lon="11.664562">
        <ele>476.860205</ele>
        <time>2026-08-31T21:31:00.476Z</time>
      </trkpt>
      <trkpt lat="48.230314" lon="11.664139">
        <ele>476.554798</ele>
        <time>2026-08-31T21:31:11.751Z</time>
      </trkpt>
      <trkpt lat="48.230079" lon="11.663878">
        <ele>476.370071</ele>
        <time>2026-08-31T21:31:19.012Z</time>
      </trkpt>
      <trkpt lat="48.229575" lon="11.663410">
        <ele>476.810361</ele>
        <time>2026-08-31T21:31:34.773Z</time>
      </trkpt>
      <trkpt lat="48.229399" lon="11.663287">
        <ele>476.954595</ele>
        <time>2026-08-31T21:31:40.160Z</time>
      </trkpt>
      <trkpt lat="48.229237" lon="11.663217">
        <ele>477.079839</ele>
        <time>2026-08-31T21:31:44.757Z</time>
      </trkpt>
      <trkpt lat="48.228846" lon="11.663173">
        <ele>477.371146</ele>
        <time>2026-08-31T21:31:55.844Z</time>
      </trkpt>
      <trkpt lat="48.228504" lon="11.662983">
        <ele>477.642076</ele>
        <time>2026-08-31T21:32:06.752Z</time>
      </trkpt>
      <trkpt lat="48.228328" lon="11.662873">
        <ele>477.800847</ele>
        <time>2026-08-31T21:32:12.497Z</time>
      </trkpt>
      <trkpt lat="48.228160" lon="11.662777">
        <ele>477.963248</ele>
        <time>2026-08-31T21:32:17.812Z</time>
      </trkpt>
      <trkpt lat="48.227768" lon="11.662773">
        <ele>478.317399</ele>
        <time>2026-08-31T21:32:29.076Z</time>
      </trkpt>
      <trkpt lat="48.227471" lon="11.662825">
        <ele>478.587536</ele>
        <time>2026-08-31T21:32:37.074Z</time>
      </trkpt>
      <trkpt lat="48.227334" lon="11.662847">
        <ele>478.712011</ele>
        <time>2026-08-31T21:32:40.532Z</time>
      </trkpt>
      <trkpt lat="48.226577" lon="11.662618">
        <ele>479.506010</ele>
        <time>2026-08-31T21:33:02.389Z</time>
      </trkpt>
      <trkpt lat="48.226280" lon="11.662474">
        <ele>480.126262</ele>
        <time>2026-08-31T21:33:11.668Z</time>
      </trkpt>
      <trkpt lat="48.226018" lon="11.662302">
        <ele>480.694552</ele>
        <time>2026-08-31T21:33:20.446Z</time>
      </trkpt>
      <trkpt lat="48.225834" lon="11.662231">
        <ele>481.072103</ele>
        <time>2026-08-31T21:33:26.596Z</time>
      </trkpt>
      <trkpt lat="48.224388" lon="11.661809">
        <ele>483.717442</ele>
        <time>2026-08-31T21:34:18.545Z</time>
      </trkpt>
      <trkpt lat="48.223758" lon="11.661342">
        <ele>484.754302</ele>
        <time>2026-08-31T21:34:40.172Z</time>
      </trkpt>
      <trkpt lat="48.223194" lon="11.660779">
        <ele>485.486484</ele>
        <time>2026-08-31T21:34:58.387Z</time>
      </trkpt>
      <trkpt lat="48.222979" lon="11.660499">
        <ele>485.333129</ele>
        <time>2026-08-31T21:35:05.068Z</time>
      </trkpt>
      <trkpt lat="48.222631" lon="11.659909">
        <ele>485.050289</ele>
        <time>2026-08-31T21:35:16.827Z</time>
      </trkpt>
      <trkpt lat="48.222308" lon="11.659442">
        <ele>484.808670</ele>
        <time>2026-08-31T21:35:26.897Z</time>
      </trkpt>
      <trkpt lat="48.222123" lon="11.659091">
        <ele>484.648024</ele>
        <time>2026-08-31T21:35:33.308Z</time>
      </trkpt>
      <trkpt lat="48.221943" lon="11.658616">
        <ele>484.357956</ele>
        <time>2026-08-31T21:35:41.110Z</time>
      </trkpt>
      <trkpt lat="48.221672" lon="11.657636">
        <ele>483.716152</ele>
        <time>2026-08-31T21:35:56.384Z</time>
      </trkpt>
      <trkpt lat="48.221575" lon="11.657233">
        <ele>483.456969</ele>
        <time>2026-08-31T21:36:02.529Z</time>
      </trkpt>
      <trkpt lat="48.221513" lon="11.656976">
        <ele>483.291640</ele>
        <time>2026-08-31T21:36:06.481Z</time>
      </trkpt>
      <trkpt lat="48.221504" lon="11.656938">
        <ele>483.267245</ele>
        <time>2026-08-31T21:36:07.071Z</time>
      </trkpt>
      <trkpt lat="48.221402" lon="11.656568">
        <ele>483.025040</ele>
        <time>2026-08-31T21:36:12.985Z</time>
      </trkpt>
      <trkpt lat="48.221186" lon="11.655473">
        <ele>482.782407</ele>
        <time>2026-08-31T21:36:30.731Z</time>
      </trkpt>
      <trkpt lat="48.221077" lon="11.655161">
        <ele>482.722903</ele>
        <time>2026-08-31T21:36:36.418Z</time>
      </trkpt>
      <trkpt lat="48.221027" lon="11.655012">
        <ele>482.694725</ele>
        <time>2026-08-31T21:36:39.122Z</time>
      </trkpt>
      <trkpt lat="48.220731" lon="11.654143">
        <ele>482.529878</ele>
        <time>2026-08-31T21:36:55.097Z</time>
      </trkpt>
      <trkpt lat="48.220544" lon="11.653804">
        <ele>482.481072</ele>
        <time>2026-08-31T21:37:02.349Z</time>
      </trkpt>
      <trkpt lat="48.220332" lon="11.653474">
        <ele>482.448064</ele>
        <time>2026-08-31T21:37:09.877Z</time>
      </trkpt>
      <trkpt lat="48.220147" lon="11.653271">
        <ele>482.423298</ele>
        <time>2026-08-31T21:37:15.569Z</time>
      </trkpt>
      <trkpt lat="48.220002" lon="11.653011">
        <ele>482.398884</ele>
        <time>2026-08-31T21:37:21.160Z</time>
      </trkpt>
      <trkpt lat="48.219577" lon="11.652581">
        <ele>482.343493</ele>
        <time>2026-08-31T21:37:33.281Z</time>
      </trkpt>
      <trkpt lat="48.219357" lon="11.652421">
        <ele>482.317074</ele>
        <time>2026-08-31T21:37:38.953Z</time>
      </trkpt>
      <trkpt lat="48.219152" lon="11.652368">
        <ele>482.336572</ele>
        <time>2026-08-31T21:37:43.890Z</time>
      </trkpt>
      <trkpt lat="48.218905" lon="11.652285">
        <ele>482.412944</ele>
        <time>2026-08-31T21:37:49.949Z</time>
      </trkpt>
      <trkpt lat="48.218508" lon="11.652075">
        <ele>482.539953</ele>
        <time>2026-08-31T21:38:00.665Z</time>
      </trkpt>
      <trkpt lat="48.217925" lon="11.651940">
        <ele>482.717944</ele>
        <time>2026-08-31T21:38:16.242Z</time>
      </trkpt>
      <trkpt lat="48.217662" lon="11.651889">
        <ele>482.797959</ele>
        <time>2026-08-31T21:38:23.475Z</time>
      </trkpt>
      <trkpt lat="48.217250" lon="11.651824">
        <ele>482.967068</ele>
        <time>2026-08-31T21:38:35.207Z</time>
      </trkpt>
      <trkpt lat="48.216977" lon="11.651850">
        <ele>483.098419</ele>
        <time>2026-08-31T21:38:43.033Z</time>
      </trkpt>
      <trkpt lat="48.215779" lon="11.651902">
        <ele>483.673908</ele>
        <time>2026-08-31T21:39:14.735Z</time>
      </trkpt>
      <trkpt lat="48.215097" lon="11.652057">
        <ele>483.554640</ele>
        <time>2026-08-31T21:39:31.802Z</time>
      </trkpt>
      <trkpt lat="48.214401" lon="11.652017">
        <ele>483.375040</ele>
        <time>2026-08-31T21:39:47.827Z</time>
      </trkpt>
      <trkpt lat="48.213555" lon="11.652005">
        <ele>483.544698</ele>
        <time>2026-08-31T21:40:06.921Z</time>
      </trkpt>
      <trkpt lat="48.212768" lon="11.651750">
        <ele>484.218420</ele>
        <time>2026-08-31T21:40:28.687Z</time>
      </trkpt>
      <trkpt lat="48.212332" lon="11.651508">
        <ele>484.607411</ele>
        <time>2026-08-31T21:40:43.333Z</time>
      </trkpt>
      <trkpt lat="48.211862" lon="11.651247">
        <ele>485.433256</ele>
        <time>2026-08-31T21:41:00.500Z</time>
      </trkpt>
      <trkpt lat="48.211391" lon="11.650986">
        <ele>486.477932</ele>
        <time>2026-08-31T21:41:18.253Z</time>
      </trkpt>
      <trkpt lat="48.209530" lon="11.649506">
        <ele>489.451672</ele>
        <time>2026-08-31T21:42:25.652Z</time>
      </trkpt>
      <trkpt lat="48.208717" lon="11.648593">
        <ele>489.510476</ele>
        <time>2026-08-31T21:42:48.710Z</time>
      </trkpt>
      <trkpt lat="48.208421" lon="11.648218">
        <ele>488.964057</ele>
        <time>2026-08-31T21:42:56.480Z</time>
      </trkpt>
      <trkpt lat="48.208165" lon="11.647813">
        <ele>488.439345</ele>
        <time>2026-08-31T21:43:03.811Z</time>
      </trkpt>
      <trkpt lat="48.208004" lon="11.647606">
        <ele>488.140290</ele>
        <time>2026-08-31T21:43:07.936Z</time>
      </trkpt>
      <trkpt lat="48.207687" lon="11.647001">
        <ele>487.491768</ele>
        <time>2026-08-31T21:43:18.283Z</time>
      </trkpt>
      <trkpt lat="48.207393" lon="11.646555">
        <ele>487.707322</ele>
        <time>2026-08-31T21:43:28.292Z</time>
      </trkpt>
      <trkpt lat="48.206893" lon="11.645512">
        <ele>488.148799</ele>
        <time>2026-08-31T21:43:52.657Z</time>
      </trkpt>
      <trkpt lat="48.206653" lon="11.645065">
        <ele>488.346040</ele>
        <time>2026-08-31T21:44:04.487Z</time>
      </trkpt>
      <trkpt lat="48.206144" lon="11.643968">
        <ele>489.073531</ele>
        <time>2026-08-31T21:44:30.784Z</time>
      </trkpt>
      <trkpt lat="48.206119" lon="11.643910">
        <ele>489.112934</ele>
        <time>2026-08-31T21:44:32.151Z</time>
      </trkpt>
      <trkpt lat="48.206092" lon="11.643839">
        <ele>489.159566</ele>
        <time>2026-08-31T21:44:33.705Z</time>
      </trkpt>
      <trkpt lat="48.205906" lon="11.643405">
        <ele>489.453914</ele>
        <time>2026-08-31T21:44:43.368Z</time>
      </trkpt>
      <trkpt lat="48.205530" lon="11.642675">
        <ele>489.892235</ele>
        <time>2026-08-31T21:44:59.593Z</time>
      </trkpt>
      <trkpt lat="48.204960" lon="11.641881">
        <ele>489.149350</ele>
        <time>2026-08-31T21:45:18.497Z</time>
      </trkpt>
      <trkpt lat="48.204643" lon="11.641573">
        <ele>488.788630</ele>
        <time>2026-08-31T21:45:26.480Z</time>
      </trkpt>
      <trkpt lat="48.204462" lon="11.641472">
        <ele>488.604179</ele>
        <time>2026-08-31T21:45:30.293Z</time>
      </trkpt>
      <trkpt lat="48.203848" lon="11.640887">
        <ele>487.916165</ele>
        <time>2026-08-31T21:45:44.505Z</time>
      </trkpt>
      <trkpt lat="48.203408" lon="11.640590">
        <ele>487.465243</ele>
        <time>2026-08-31T21:45:54.135Z</time>
      </trkpt>
      <trkpt lat="48.203086" lon="11.640476">
        <ele>487.156038</ele>
        <time>2026-08-31T21:46:01.184Z</time>
      </trkpt>
      <trkpt lat="48.201823" lon="11.640257">
        <ele>486.677127</ele>
        <time>2026-08-31T21:46:35.019Z</time>
      </trkpt>
      <trkpt lat="48.201677" lon="11.640224">
        <ele>486.710299</ele>
        <time>2026-08-31T21:46:39.099Z</time>
      </trkpt>
      <trkpt lat="48.200609" lon="11.640229">
        <ele>486.959399</ele>
        <time>2026-08-31T21:47:05.916Z</time>
      </trkpt>
      <trkpt lat="48.200247" lon="11.640340">
        <ele>487.159347</ele>
        <time>2026-08-31T21:47:14.675Z</time>
      </trkpt>
      <trkpt lat="48.200047" lon="11.640328">
        <ele>487.267665</ele>
        <time>2026-08-31T21:47:19.560Z</time>
      </trkpt>
      <trkpt lat="48.199509" lon="11.639992">
        <ele>487.583026</ele>
        <time>2026-08-31T21:47:34.458Z</time>
      </trkpt>
      <trkpt lat="48.199371" lon="11.639942">
        <ele>487.659852</ele>
        <time>2026-08-31T21:47:38.254Z</time>
      </trkpt>
      <trkpt lat="48.198806" lon="11.639911">
        <ele>488.081217</ele>
        <time>2026-08-31T21:47:55.082Z</time>
      </trkpt>
      <trkpt lat="48.198220" lon="11.639622">
        <ele>489.206077</ele>
        <time>2026-08-31T21:48:15.772Z</time>
      </trkpt>
      <trkpt lat="48.197915" lon="11.639773">
        <ele>489.791764</ele>
        <time>2026-08-31T21:48:26.882Z</time>
      </trkpt>
      <trkpt lat="48.197826" lon="11.639779">
        <ele>489.954224</ele>
        <time>2026-08-31T21:48:29.939Z</time>
      </trkpt>
      <trkpt lat="48.197237" lon="11.639566">
        <ele>491.059062</ele>
        <time>2026-08-31T21:48:49.571Z</time>
      </trkpt>
      <trkpt lat="48.197049" lon="11.639527">
        <ele>491.236678</ele>
        <time>2026-08-31T21:48:55.395Z</time>
      </trkpt>
      <trkpt lat="48.196988" lon="11.639492">
        <ele>491.259364</ele>
        <time>2026-08-31T21:48:57.364Z</time>
      </trkpt>
      <trkpt lat="48.196408" lon="11.638778">
        <ele>491.519974</ele>
        <time>2026-08-31T21:49:17.293Z</time>
      </trkpt>
      <trkpt lat="48.195960" lon="11.638357">
        <ele>491.703597</ele>
        <time>2026-08-31T21:49:29.754Z</time>
      </trkpt>
      <trkpt lat="48.195221" lon="11.637983">
        <ele>491.830475</ele>
        <time>2026-08-31T21:49:48.471Z</time>
      </trkpt>
      <trkpt lat="48.194582" lon="11.637499">
        <ele>491.844601</ele>
        <time>2026-08-31T21:50:06.038Z</time>
      </trkpt>
      <trkpt lat="48.194202" lon="11.637270">
        <ele>491.852683</ele>
        <time>2026-08-31T21:50:16.522Z</time>
      </trkpt>
      <trkpt lat="48.194053" lon="11.637227">
        <ele>491.855677</ele>
        <time>2026-08-31T21:50:20.397Z</time>
      </trkpt>
      <trkpt lat="48.193937" lon="11.637185">
        <ele>491.865649</ele>
        <time>2026-08-31T21:50:23.456Z</time>
      </trkpt>
      <trkpt lat="48.193329" lon="11.636804">
        <ele>492.012868</ele>
        <time>2026-08-31T21:50:40.214Z</time>
      </trkpt>
      <trkpt lat="48.193304" lon="11.636790">
        <ele>492.018830</ele>
        <time>2026-08-31T21:50:40.904Z</time>
      </trkpt>
      <trkpt lat="48.191368" lon="11.635669">
        <ele>492.455693</ele>
        <time>2026-08-31T21:51:34.168Z</time>
      </trkpt>
      <trkpt lat="48.191190" lon="11.635512">
        <ele>492.496293</ele>
        <time>2026-08-31T21:51:39.478Z</time>
      </trkpt>
      <trkpt lat="48.191037" lon="11.635388">
        <ele>492.530486</ele>
        <time>2026-08-31T21:51:43.900Z</time>
      </trkpt>
      <trkpt lat="48.190457" lon="11.635135">
        <ele>492.578618</ele>
        <time>2026-08-31T21:51:59.201Z</time>
      </trkpt>
      <trkpt lat="48.189836" lon="11.634764">
        <ele>492.455326</ele>
        <time>2026-08-31T21:52:15.590Z</time>
      </trkpt>
      <trkpt lat="48.189659" lon="11.634645">
        <ele>492.419549</ele>
        <time>2026-08-31T21:52:20.192Z</time>
      </trkpt>
      <trkpt lat="48.189314" lon="11.634480">
        <ele>492.352758</ele>
        <time>2026-08-31T21:52:28.617Z</time>
      </trkpt>
      <trkpt lat="48.188779" lon="11.634165">
        <ele>492.277892</ele>
        <time>2026-08-31T21:52:42.048Z</time>
      </trkpt>
      <trkpt lat="48.188512" lon="11.633988">
        <ele>492.272937</ele>
        <time>2026-08-31T21:52:48.950Z</time>
      </trkpt>
      <trkpt lat="48.188165" lon="11.633759">
        <ele>492.266501</ele>
        <time>2026-08-31T21:52:58.044Z</time>
      </trkpt>
      <trkpt lat="48.185439" lon="11.631855">
        <ele>493.120204</ele>
        <time>2026-08-31T21:54:15.291Z</time>
      </trkpt>
      <trkpt lat="48.185330" lon="11.631724">
        <ele>493.292985</ele>
        <time>2026-08-31T21:54:19.167Z</time>
      </trkpt>
      <trkpt lat="48.185296" lon="11.631663">
        <ele>493.358559</ele>
        <time>2026-08-31T21:54:20.662Z</time>
      </trkpt>
      <trkpt lat="48.185218" lon="11.631545">
        <ele>493.495603</ele>
        <time>2026-08-31T21:54:25.137Z</time>
      </trkpt>
      <trkpt lat="48.184825" lon="11.631148">
        <ele>494.081731</ele>
        <time>2026-08-31T21:54:44.936Z</time>
      </trkpt>
      <trkpt lat="48.184682" lon="11.631049">
        <ele>494.276559</ele>
        <time>2026-08-31T21:54:51.982Z</time>
      </trkpt>
      <trkpt lat="48.184331" lon="11.630983">
        <ele>494.714149</ele>
        <time>2026-08-31T21:55:08.115Z</time>
      </trkpt>
      <trkpt lat="48.184133" lon="11.630954">
        <ele>494.960243</ele>
        <time>2026-08-31T21:55:16.962Z</time>
      </trkpt>
      <trkpt lat="48.184005" lon="11.630821">
        <ele>495.088492</ele>
        <time>2026-08-31T21:55:23.876Z</time>
      </trkpt>
      <trkpt lat="48.183572" lon="11.630454">
        <ele>495.416117</ele>
        <time>2026-08-31T21:55:45.767Z</time>
      </trkpt>
      <trkpt lat="48.181798" lon="11.628851">
        <ele>496.114661</ele>
        <time>2026-08-31T21:56:36.899Z</time>
      </trkpt>
      <trkpt lat="48.180839" lon="11.628007">
        <ele>495.898580</ele>
        <time>2026-08-31T21:57:04.028Z</time>
      </trkpt>
      <trkpt lat="48.180586" lon="11.627764">
        <ele>495.701956</ele>
        <time>2026-08-31T21:57:10.978Z</time>
      </trkpt>
      <trkpt lat="48.179554" lon="11.626907">
        <ele>494.929922</ele>
        <time>2026-08-31T21:57:36.612Z</time>
      </trkpt>
      <trkpt lat="48.179522" lon="11.626893">
        <ele>494.908107</ele>
        <time>2026-08-31T21:57:37.323Z</time>
      </trkpt>
      <trkpt lat="48.178612" lon="11.626059">
        <ele>494.841221</ele>
        <time>2026-08-31T21:58:02.704Z</time>
      </trkpt>
      <trkpt lat="48.178469" lon="11.625976">
        <ele>494.840050</ele>
        <time>2026-08-31T21:58:06.717Z</time>
      </trkpt>
      <trkpt lat="48.178377" lon="11.625948">
        <ele>494.839333</ele>
        <time>2026-08-31T21:58:09.192Z</time>
      </trkpt>
      <trkpt lat="48.178319" lon="11.625937">
        <ele>494.838887</ele>
        <time>2026-08-31T21:58:10.732Z</time>
      </trkpt>
      <trkpt lat="48.177416" lon="11.625051">
        <ele>494.989841</ele>
        <time>2026-08-31T21:58:39.383Z</time>
      </trkpt>
      <trkpt lat="48.176940" lon="11.624773">
        <ele>495.130692</ele>
        <time>2026-08-31T21:58:52.341Z</time>
      </trkpt>
      <trkpt lat="48.176467" lon="11.624396">
        <ele>495.278391</ele>
        <time>2026-08-31T21:59:05.825Z</time>
      </trkpt>
      <trkpt lat="48.175813" lon="11.624171">
        <ele>495.387344</ele>
        <time>2026-08-31T21:59:23.607Z</time>
      </trkpt>
      <trkpt lat="48.175751" lon="11.624120">
        <ele>495.395651</ele>
        <time>2026-08-31T21:59:25.415Z</time>
      </trkpt>
      <trkpt lat="48.175263" lon="11.624285">
        <ele>495.454417</ele>
        <time>2026-08-31T21:59:44.238Z</time>
      </trkpt>
      <trkpt lat="48.175146" lon="11.624250">
        <ele>495.468432</ele>
        <time>2026-08-31T21:59:48.603Z</time>
      </trkpt>
      <trkpt lat="48.174894" lon="11.624083">
        <ele>495.500798</ele>
        <time>2026-08-31T21:59:58.656Z</time>
      </trkpt>
      <trkpt lat="48.174495" lon="11.623731">
        <ele>495.610439</ele>
        <time>2026-08-31T22:00:15.690Z</time>
      </trkpt>
      <trkpt lat="48.173873" lon="11.623097">
        <ele>496.074273</ele>
        <time>2026-08-31T22:00:43.382Z</time>
      </trkpt>
      <trkpt lat="48.173704" lon="11.622939">
        <ele>496.197097</ele>
        <time>2026-08-31T22:00:51.114Z</time>
      </trkpt>
      <trkpt lat="48.172919" lon="11.622149">
        <ele>496.897488</ele>
        <time>2026-08-31T22:01:31.536Z</time>
      </trkpt>
      <trkpt lat="48.172506" lon="11.621799">
        <ele>497.456797</ele>
        <time>2026-08-31T22:01:52.377Z</time>
      </trkpt>
      <trkpt lat="48.171213" lon="11.620539">
        <ele>499.120081</ele>
        <time>2026-08-31T22:02:55.619Z</time>
      </trkpt>
      <trkpt lat="48.171127" lon="11.620458">
        <ele>499.202957</ele>
        <time>2026-08-31T22:02:59.490Z</time>
      </trkpt>
      <trkpt lat="48.169896" lon="11.619329">
        <ele>500.500047</ele>
        <time>2026-08-31T22:03:56.571Z</time>
      </trkpt>
      <trkpt lat="48.169778" lon="11.619386">
        <ele>500.687151</ele>
        <time>2026-08-31T22:04:01.899Z</time>
      </trkpt>
      <trkpt lat="48.169599" lon="11.619480">
        <ele>500.973394</ele>
        <time>2026-08-31T22:04:10.245Z</time>
      </trkpt>
      <trkpt lat="48.169518" lon="11.619542">
        <ele>501.110650</ele>
        <time>2026-08-31T22:04:14.262Z</time>
      </trkpt>
      <trkpt lat="48.169477" lon="11.619621">
        <ele>501.211408</ele>
        <time>2026-08-31T22:04:17.197Z</time>
      </trkpt>
      <trkpt lat="48.169333" lon="11.619826">
        <ele>501.511092</ele>
        <time>2026-08-31T22:04:23.578Z</time>
      </trkpt>
      <trkpt lat="48.169253" lon="11.619938">
        <ele>501.676280</ele>
        <time>2026-08-31T22:04:27.079Z</time>
      </trkpt>
      <trkpt lat="48.169217" lon="11.619985">
        <ele>501.748323</ele>
        <time>2026-08-31T22:04:28.645Z</time>
      </trkpt>
      <trkpt lat="48.169146" lon="11.620063">
        <ele>501.881163</ele>
        <time>2026-08-31T22:04:31.459Z</time>
      </trkpt>
      <trkpt lat="48.169025" lon="11.620118">
        <ele>502.071988</ele>
        <time>2026-08-31T22:04:35.529Z</time>
      </trkpt>
      <trkpt lat="48.168857" lon="11.620138">
        <ele>502.326338</ele>
        <time>2026-08-31T22:04:41.038Z</time>
      </trkpt>
      <trkpt lat="48.168704" lon="11.620115">
        <ele>502.558409</ele>
        <time>2026-08-31T22:04:46.087Z</time>
      </trkpt>
      <trkpt lat="48.168574" lon="11.620160">
        <ele>502.759771</ele>
        <time>2026-08-31T22:04:50.426Z</time>
      </trkpt>
      <trkpt lat="48.168218" lon="11.619668">
        <ele>502.973191</ele>
        <time>2026-08-31T22:05:04.511Z</time>
      </trkpt>
      <trkpt lat="48.168162" lon="11.619786">
        <ele>502.978300</ele>
        <time>2026-08-31T22:05:07.594Z</time>
      </trkpt>
      <trkpt lat="48.167864" lon="11.619469">
        <ele>502.997628</ele>
        <time>2026-08-31T22:05:16.057Z</time>
      </trkpt>
      <trkpt lat="48.167786" lon="11.619387">
        <ele>503.002667</ele>
        <time>2026-08-31T22:05:18.063Z</time>
      </trkpt>
      <trkpt lat="48.167531" lon="11.619152">
        <ele>503.018499</ele>
        <time>2026-08-31T22:05:24.149Z</time>
      </trkpt>
      <trkpt lat="48.167266" lon="11.618921">
        <ele>503.034714</ele>
        <time>2026-08-31T22:05:30.206Z</time>
      </trkpt>
      <trkpt lat="48.166803" lon="11.618581">
        <ele>502.807909</ele>
        <time>2026-08-31T22:05:40.263Z</time>
      </trkpt>
      <trkpt lat="48.166847" lon="11.618488">
        <ele>502.729775</ele>
        <time>2026-08-31T22:05:41.724Z</time>
      </trkpt>
      <trkpt lat="48.166945" lon="11.618391">
        <ele>502.609128</ele>
        <time>2026-08-31T22:05:43.954Z</time>
      </trkpt>
      <trkpt lat="48.167198" lon="11.617921">
        <ele>502.195255</ele>
        <time>2026-08-31T22:05:51.525Z</time>
      </trkpt>
      <trkpt lat="48.167303" lon="11.617699">
        <ele>502.008763</ele>
        <time>2026-08-31T22:05:54.864Z</time>
      </trkpt>
      <trkpt lat="48.167615" lon="11.616863">
        <ele>501.352318</ele>
        <time>2026-08-31T22:06:07.079Z</time>
      </trkpt>
      <trkpt lat="48.167696" lon="11.616780">
        <ele>501.251520</ele>
        <time>2026-08-31T22:06:09.059Z</time>
      </trkpt>
      <trkpt lat="48.167891" lon="11.616712">
        <ele>501.177876</ele>
        <time>2026-08-31T22:06:13.109Z</time>
      </trkpt>
      <trkpt lat="48.167762" lon="11.616430">
        <ele>501.142190</ele>
        <time>2026-08-31T22:06:18.264Z</time>
      </trkpt>
      <trkpt lat="48.167666" lon="11.616288">
        <ele>501.121089</ele>
        <time>2026-08-31T22:06:21.337Z</time>
      </trkpt>
      <trkpt lat="48.167328" lon="11.615933">
        <ele>501.056517</ele>
        <time>2026-08-31T22:06:31.036Z</time>
      </trkpt>
      <trkpt lat="48.166858" lon="11.615509">
        <ele>500.970689</ele>
        <time>2026-08-31T22:06:45.155Z</time>
      </trkpt>
      <trkpt lat="48.166242" lon="11.614961">
        <ele>500.891741</ele>
        <time>2026-08-31T22:07:04.051Z</time>
      </trkpt>
      <trkpt lat="48.165384" lon="11.614229">
        <ele>500.820412</ele>
        <time>2026-08-31T22:07:28.031Z</time>
      </trkpt>
      <trkpt lat="48.164061" lon="11.612986">
        <ele>500.726051</ele>
        <time>2026-08-31T22:08:04.204Z</time>
      </trkpt>
      <trkpt lat="48.161798" lon="11.610949">
        <ele>501.788392</ele>
        <time>2026-08-31T22:09:15.378Z</time>
      </trkpt>
      <trkpt lat="48.161047" lon="11.610268">
        <ele>502.231326</ele>
        <time>2026-08-31T22:09:39.069Z</time>
      </trkpt>
      <trkpt lat="48.160436" lon="11.609722">
        <ele>502.590295</ele>
        <time>2026-08-31T22:09:57.500Z</time>
      </trkpt>
      <trkpt lat="48.159815" lon="11.609146">
        <ele>503.236803</ele>
        <time>2026-08-31T22:10:17.362Z</time>
      </trkpt>
      <trkpt lat="48.159628" lon="11.608963">
        <ele>503.437419</ele>
        <time>2026-08-31T22:10:23.661Z</time>
      </trkpt>
      <trkpt lat="48.158962" lon="11.608332">
        <ele>504.145190</ele>
        <time>2026-08-31T22:10:47.033Z</time>
      </trkpt>
      <trkpt lat="48.158321" lon="11.607841">
        <ele>504.765311</ele>
        <time>2026-08-31T22:11:08.418Z</time>
      </trkpt>
      <trkpt lat="48.157696" lon="11.607524">
        <ele>505.330619</ele>
        <time>2026-08-31T22:11:27.596Z</time>
      </trkpt>
      <trkpt lat="48.157475" lon="11.607319">
        <ele>505.553287</ele>
        <time>2026-08-31T22:11:34.671Z</time>
      </trkpt>
      <trkpt lat="48.157125" lon="11.606779">
        <ele>505.731841</ele>
        <time>2026-08-31T22:11:47.155Z</time>
      </trkpt>
      <trkpt lat="48.156835" lon="11.606462">
        <ele>505.694147</ele>
        <time>2026-08-31T22:11:55.646Z</time>
      </trkpt>
      <trkpt lat="48.156654" lon="11.606250">
        <ele>505.670024</ele>
        <time>2026-08-31T22:12:00.447Z</time>
      </trkpt>
      <trkpt lat="48.156498" lon="11.606069">
        <ele>505.649306</ele>
        <time>2026-08-31T22:12:04.523Z</time>
      </trkpt>
      <trkpt lat="48.156292" lon="11.605871">
        <ele>505.623606</ele>
        <time>2026-08-31T22:12:09.521Z</time>
      </trkpt>
      <trkpt lat="48.156221" lon="11.605813">
        <ele>505.615114</ele>
        <time>2026-08-31T22:12:11.203Z</time>
      </trkpt>
      <trkpt lat="48.156117" lon="11.605730">
        <ele>505.602740</ele>
        <time>2026-08-31T22:12:13.905Z</time>
      </trkpt>
      <trkpt lat="48.155389" lon="11.605121">
        <ele>505.809327</ele>
        <time>2026-08-31T22:12:35.123Z</time>
      </trkpt>
      <trkpt lat="48.154637" lon="11.604408">
        <ele>506.213379</ele>
        <time>2026-08-31T22:13:00.342Z</time>
      </trkpt>
      <trkpt lat="48.154262" lon="11.604013">
        <ele>506.392417</ele>
        <time>2026-08-31T22:13:12.439Z</time>
      </trkpt>
      <trkpt lat="48.153753" lon="11.603621">
        <ele>506.432056</ele>
        <time>2026-08-31T22:13:26.096Z</time>
      </trkpt>
      <trkpt lat="48.153685" lon="11.603591">
        <ele>506.436966</ele>
        <time>2026-08-31T22:13:27.589Z</time>
      </trkpt>
      <trkpt lat="48.153250" lon="11.603135">
        <ele>506.473734</ele>
        <time>2026-08-31T22:13:38.743Z</time>
      </trkpt>
      <trkpt lat="48.152341" lon="11.602265">
        <ele>507.016874</ele>
        <time>2026-08-31T22:14:04.446Z</time>
      </trkpt>
      <trkpt lat="48.150801" lon="11.600834">
        <ele>508.377084</ele>
        <time>2026-08-31T22:14:53.770Z</time>
      </trkpt>
      <trkpt lat="48.150587" lon="11.600641">
        <ele>508.445747</ele>
        <time>2026-08-31T22:14:59.936Z</time>
      </trkpt>
      <trkpt lat="48.150551" lon="11.600716">
        <ele>508.462695</ele>
        <time>2026-08-31T22:15:01.672Z</time>
      </trkpt>
      <trkpt lat="48.149296" lon="11.599559">
        <ele>508.518657</ele>
        <time>2026-08-31T22:15:32.226Z</time>
      </trkpt>
      <trkpt lat="48.149309" lon="11.599485">
        <ele>508.498989</ele>
        <time>2026-08-31T22:15:33.106Z</time>
      </trkpt>
      <trkpt lat="48.149280" lon="11.599457">
        <ele>508.485699</ele>
        <time>2026-08-31T22:15:33.730Z</time>
      </trkpt>
      <trkpt lat="48.149217" lon="11.599440">
        <ele>508.461039</ele>
        <time>2026-08-31T22:15:35.353Z</time>
      </trkpt>
      <trkpt lat="48.148969" lon="11.599197">
        <ele>508.346895</ele>
        <time>2026-08-31T22:15:41.023Z</time>
      </trkpt>
      <trkpt lat="48.148992" lon="11.599147">
        <ele>508.331285</ele>
        <time>2026-08-31T22:15:41.832Z</time>
      </trkpt>
      <trkpt lat="48.149406" lon="11.598213">
        <ele>508.043068</ele>
        <time>2026-08-31T22:15:58.489Z</time>
      </trkpt>
      <trkpt lat="48.149538" lon="11.597908">
        <ele>508.100299</ele>
        <time>2026-08-31T22:16:04.393Z</time>
      </trkpt>
      <trkpt lat="48.149624" lon="11.597810">
        <ele>508.137218</ele>
        <time>2026-08-31T22:16:07.060Z</time>
      </trkpt>
      <trkpt lat="48.149658" lon="11.597744">
        <ele>508.156229</ele>
        <time>2026-08-31T22:16:08.323Z</time>
      </trkpt>
      <trkpt lat="48.149776" lon="11.597463">
        <ele>508.231931</ele>
        <time>2026-08-31T22:16:13.551Z</time>
      </trkpt>
      <trkpt lat="48.149820" lon="11.597359">
        <ele>508.260009</ele>
        <time>2026-08-31T22:16:15.436Z</time>
      </trkpt>
      <trkpt lat="48.149795" lon="11.597333">
        <ele>508.270407</ele>
        <time>2026-08-31T22:16:16.159Z</time>
      </trkpt>
      <trkpt lat="48.149991" lon="11.596892">
        <ele>508.391222</ele>
        <time>2026-08-31T22:16:25.074Z</time>
      </trkpt>
      <trkpt lat="48.150072" lon="11.596691">
        <ele>508.444761</ele>
        <time>2026-08-31T22:16:29.258Z</time>
      </trkpt>
      <trkpt lat="48.150157" lon="11.596481">
        <ele>508.500763</ele>
        <time>2026-08-31T22:16:33.435Z</time>
      </trkpt>
      <trkpt lat="48.150225" lon="11.596319">
        <ele>508.544400</ele>
        <time>2026-08-31T22:16:36.415Z</time>
      </trkpt>
      <trkpt lat="48.150229" lon="11.596184">
        <ele>508.575211</ele>
        <time>2026-08-31T22:16:38.377Z</time>
      </trkpt>
      <trkpt lat="48.150358" lon="11.595912">
        <ele>508.643012</ele>
        <time>2026-08-31T22:16:43.282Z</time>
      </trkpt>
      <trkpt lat="48.150627" lon="11.595347">
        <ele>508.618352</ele>
        <time>2026-08-31T22:16:52.941Z</time>
      </trkpt>
      <trkpt lat="48.150644" lon="11.595312">
        <ele>508.616813</ele>
        <time>2026-08-31T22:16:53.518Z</time>
      </trkpt>
      <trkpt lat="48.150712" lon="11.595215">
        <ele>508.611815</ele>
        <time>2026-08-31T22:16:55.384Z</time>
      </trkpt>
      <trkpt lat="48.150752" lon="11.595159">
        <ele>508.608900</ele>
        <time>2026-08-31T22:16:56.463Z</time>
      </trkpt>
      <trkpt lat="48.150824" lon="11.595064">
        <ele>508.603792</ele>
        <time>2026-08-31T22:16:58.354Z</time>
      </trkpt>
      <trkpt lat="48.151136" lon="11.594662">
        <ele>508.581883</ele>
        <time>2026-08-31T22:17:07.362Z</time>
      </trkpt>
      <trkpt lat="48.151449" lon="11.594314">
        <ele>508.561130</ele>
        <time>2026-08-31T22:17:16.814Z</time>
      </trkpt>
      <trkpt lat="48.151578" lon="11.594171">
        <ele>508.552586</ele>
        <time>2026-08-31T22:17:20.584Z</time>
      </trkpt>
      <trkpt lat="48.151602" lon="11.594148">
        <ele>508.551069</ele>
        <time>2026-08-31T22:17:21.193Z</time>
      </trkpt>
      <trkpt lat="48.151701" lon="11.594071">
        <ele>508.558523</ele>
        <time>2026-08-31T22:17:23.740Z</time>
      </trkpt>
      <trkpt lat="48.151741" lon="11.594039">
        <ele>508.566153</ele>
        <time>2026-08-31T22:17:24.701Z</time>
      </trkpt>
      <trkpt lat="48.151687" lon="11.593980">
        <ele>508.577399</ele>
        <time>2026-08-31T22:17:26.213Z</time>
      </trkpt>
      <trkpt lat="48.151209" lon="11.593718">
        <ele>508.663050</ele>
        <time>2026-08-31T22:17:37.343Z</time>
      </trkpt>
      <trkpt lat="48.151007" lon="11.593543">
        <ele>508.702314</ele>
        <time>2026-08-31T22:17:42.587Z</time>
      </trkpt>
      <trkpt lat="48.150919" lon="11.593386">
        <ele>508.725337</ele>
        <time>2026-08-31T22:17:45.764Z</time>
      </trkpt>
      <trkpt lat="48.150818" lon="11.593133">
        <ele>508.758440</ele>
        <time>2026-08-31T22:17:50.648Z</time>
      </trkpt>
      <trkpt lat="48.150713" lon="11.593070">
        <ele>508.777474</ele>
        <time>2026-08-31T22:17:53.773Z</time>
      </trkpt>
      <trkpt lat="48.150622" lon="11.592968">
        <ele>508.796596</ele>
        <time>2026-08-31T22:17:56.779Z</time>
      </trkpt>
      <trkpt lat="48.150582" lon="11.592805">
        <ele>508.816096</ele>
        <time>2026-08-31T22:17:59.774Z</time>
      </trkpt>
      <trkpt lat="48.150577" lon="11.592665">
        <ele>508.831838</ele>
        <time>2026-08-31T22:18:02.161Z</time>
      </trkpt>
      <trkpt lat="48.150621" lon="11.592407">
        <ele>508.849149</ele>
        <time>2026-08-31T22:18:06.368Z</time>
      </trkpt>
      <trkpt lat="48.150627" lon="11.592373">
        <ele>508.848451</ele>
        <time>2026-08-31T22:18:06.903Z</time>
      </trkpt>
      <trkpt lat="48.150751" lon="11.591999">
        <ele>508.840163</ele>
        <time>2026-08-31T22:18:13.626Z</time>
      </trkpt>
      <trkpt lat="48.150858" lon="11.591972">
        <ele>508.836935</ele>
        <time>2026-08-31T22:18:16.401Z</time>
      </trkpt>
      <trkpt lat="48.151376" lon="11.591733">
        <ele>508.820813</ele>
        <time>2026-08-31T22:18:30.590Z</time>
      </trkpt>
      <trkpt lat="48.151559" lon="11.591711">
        <ele>508.815352</ele>
        <time>2026-08-31T22:18:35.187Z</time>
      </trkpt>
      <trkpt lat="48.151620" lon="11.591721">
        <ele>508.813526</ele>
        <time>2026-08-31T22:18:36.731Z</time>
      </trkpt>
      <trkpt lat="48.151679" lon="11.591740">
        <ele>508.811731</ele>
        <time>2026-08-31T22:18:38.108Z</time>
      </trkpt>
      <trkpt lat="48.151992" lon="11.591781">
        <ele>508.802385</ele>
        <time>2026-08-31T22:18:44.746Z</time>
      </trkpt>
      <trkpt lat="48.152391" lon="11.591826">
        <ele>508.549534</ele>
        <time>2026-08-31T22:18:52.820Z</time>
      </trkpt>
      <trkpt lat="48.152616" lon="11.591847">
        <ele>508.313762</ele>
        <time>2026-08-31T22:18:57.274Z</time>
      </trkpt>
      <trkpt lat="48.152899" lon="11.591874">
        <ele>508.017187</ele>
        <time>2026-08-31T22:19:02.836Z</time>
      </trkpt>
      <trkpt lat="48.153503" lon="11.591938">
        <ele>507.383918</ele>
        <time>2026-08-31T22:19:15.362Z</time>
      </trkpt>
      <trkpt lat="48.153627" lon="11.592014">
        <ele>507.243810</ele>
        <time>2026-08-31T22:19:18.125Z</time>
      </trkpt>
      <trkpt lat="48.153681" lon="11.592043">
        <ele>507.183819</ele>
        <time>2026-08-31T22:19:19.325Z</time>
      </trkpt>
      <trkpt lat="48.153923" lon="11.592033">
        <ele>506.930627</ele>
        <time>2026-08-31T22:19:24.408Z</time>
      </trkpt>
      <trkpt lat="48.154017" lon="11.592029">
        <ele>506.855402</ele>
        <time>2026-08-31T22:19:26.421Z</time>
      </trkpt>
      <trkpt lat="48.154497" lon="11.592082">
        <ele>506.490364</ele>
        <time>2026-08-31T22:19:37.111Z</time>
      </trkpt>
      <trkpt lat="48.154773" lon="11.592186">
        <ele>506.274521</ele>
        <time>2026-08-31T22:19:43.727Z</time>
      </trkpt>
      <trkpt lat="48.154837" lon="11.592215">
        <ele>506.223811</ele>
        <time>2026-08-31T22:19:45.301Z</time>
      </trkpt>
      <trkpt lat="48.155013" lon="11.592395">
        <ele>506.062216</ele>
        <time>2026-08-31T22:19:50.361Z</time>
      </trkpt>
      <trkpt lat="48.155429" lon="11.593014">
        <ele>505.617650</ele>
        <time>2026-08-31T22:20:03.710Z</time>
      </trkpt>
      <trkpt lat="48.155662" lon="11.593532">
        <ele>505.211679</ele>
        <time>2026-08-31T22:20:12.602Z</time>
      </trkpt>
      <trkpt lat="48.155776" lon="11.593936">
        <ele>504.910177</ele>
        <time>2026-08-31T22:20:18.665Z</time>
      </trkpt>
      <trkpt lat="48.155985" lon="11.595118">
        <ele>504.069701</ele>
        <time>2026-08-31T22:20:35.672Z</time>
      </trkpt>
      <trkpt lat="48.156264" lon="11.595896">
        <ele>503.728908</ele>
        <time>2026-08-31T22:20:49.067Z</time>
      </trkpt>
      <trkpt lat="48.156472" lon="11.596213">
        <ele>503.767441</ele>
        <time>2026-08-31T22:20:56.707Z</time>
      </trkpt>
      <trkpt lat="48.156506" lon="11.596250">
        <ele>503.772899</ele>
        <time>2026-08-31T22:20:57.829Z</time>
      </trkpt>
      <trkpt lat="48.156563" lon="11.596368">
        <ele>503.785524</ele>
        <time>2026-08-31T22:21:00.246Z</time>
      </trkpt>
      <trkpt lat="48.157204" lon="11.597307">
        <ele>503.901951</ele>
        <time>2026-08-31T22:21:24.880Z</time>
      </trkpt>
      <trkpt lat="48.157481" lon="11.597566">
        <ele>503.871279</ele>
        <time>2026-08-31T22:21:32.815Z</time>
      </trkpt>
      <trkpt lat="48.157688" lon="11.597616">
        <ele>503.727177</ele>
        <time>2026-08-31T22:21:37.656Z</time>
      </trkpt>
      <trkpt lat="48.157873" lon="11.597563">
        <ele>503.597729</ele>
        <time>2026-08-31T22:21:41.874Z</time>
      </trkpt>
      <trkpt lat="48.158054" lon="11.597447">
        <ele>503.462440</ele>
        <time>2026-08-31T22:21:46.162Z</time>
      </trkpt>
      <trkpt lat="48.158297" lon="11.597398">
        <ele>503.293927</ele>
        <time>2026-08-31T22:21:51.364Z</time>
      </trkpt>
      <trkpt lat="48.158473" lon="11.597432">
        <ele>503.171965</ele>
        <time>2026-08-31T22:21:55.061Z</time>
      </trkpt>
      <trkpt lat="48.158694" lon="11.597623">
        <ele>502.996642</ele>
        <time>2026-08-31T22:22:00.374Z</time>
      </trkpt>
      <trkpt lat="48.158757" lon="11.597677">
        <ele>502.946766</ele>
        <time>2026-08-31T22:22:01.910Z</time>
      </trkpt>
      <trkpt lat="48.159399" lon="11.598108">
        <ele>502.925839</ele>
        <time>2026-08-31T22:22:18.151Z</time>
      </trkpt>
      <trkpt lat="48.159479" lon="11.598206">
        <ele>502.995626</ele>
        <time>2026-08-31T22:22:20.850Z</time>
      </trkpt>
      <trkpt lat="48.159546" lon="11.598310">
        <ele>503.060776</ele>
        <time>2026-08-31T22:22:23.144Z</time>
      </trkpt>
      <trkpt lat="48.159597" lon="11.598396">
        <ele>503.112626</ele>
        <time>2026-08-31T22:22:25.001Z</time>
      </trkpt>
      <trkpt lat="48.159739" lon="11.598660">
        <ele>503.265440</ele>
        <time>2026-08-31T22:22:30.577Z</time>
      </trkpt>
      <trkpt lat="48.159810" lon="11.598841">
        <ele>503.360054</ele>
        <time>2026-08-31T22:22:34.130Z</time>
      </trkpt>
      <trkpt lat="48.159847" lon="11.598906">
        <ele>503.398558</ele>
        <time>2026-08-31T22:22:35.647Z</time>
      </trkpt>
      <trkpt lat="48.159905" lon="11.599006">
        <ele>503.458268</ele>
        <time>2026-08-31T22:22:38.038Z</time>
      </trkpt>
      <trkpt lat="48.159914" lon="11.599023">
        <ele>503.468048</ele>
        <time>2026-08-31T22:22:38.444Z</time>
      </trkpt>
      <trkpt lat="48.160005" lon="11.599178">
        <ele>503.561089</ele>
        <time>2026-08-31T22:22:42.298Z</time>
      </trkpt>
      <trkpt lat="48.160047" lon="11.599288">
        <ele>503.618199</ele>
        <time>2026-08-31T22:22:44.781Z</time>
      </trkpt>
      <trkpt lat="48.159912" lon="11.599326">
        <ele>503.710986</ele>
        <time>2026-08-31T22:22:48.710Z</time>
      </trkpt>
      <trkpt lat="48.159812" lon="11.599409">
        <ele>503.788198</ele>
        <time>2026-08-31T22:22:51.982Z</time>
      </trkpt>
      <trkpt lat="48.159729" lon="11.599532">
        <ele>503.867035</ele>
        <time>2026-08-31T22:22:55.299Z</time>
      </trkpt>
      <trkpt lat="48.159660" lon="11.599816">
        <ele>504.030025</ele>
        <time>2026-08-31T22:23:01.038Z</time>
      </trkpt>
      <trkpt lat="48.159662" lon="11.599963">
        <ele>504.115643</ele>
        <time>2026-08-31T22:23:03.744Z</time>
      </trkpt>
      <trkpt lat="48.159692" lon="11.600290">
        <ele>504.307851</ele>
        <time>2026-08-31T22:23:09.813Z</time>
      </trkpt>
      <trkpt lat="48.159741" lon="11.600561">
        <ele>504.471353</ele>
        <time>2026-08-31T22:23:14.771Z</time>
      </trkpt>
      <trkpt lat="48.159852" lon="11.600914">
        <ele>504.698603</ele>
        <time>2026-08-31T22:23:21.399Z</time>
      </trkpt>
      <trkpt lat="48.159943" lon="11.601102">
        <ele>504.833862</ele>
        <time>2026-08-31T22:23:25.380Z</time>
      </trkpt>
      <trkpt lat="48.160083" lon="11.601328">
        <ele>505.013460</ele>
        <time>2026-08-31T22:23:30.693Z</time>
      </trkpt>
      <trkpt lat="48.160196" lon="11.601526">
        <ele>505.165197</ele>
        <time>2026-08-31T22:23:35.163Z</time>
      </trkpt>
      <trkpt lat="48.160287" lon="11.601616">
        <ele>505.260366</ele>
        <time>2026-08-31T22:23:37.910Z</time>
      </trkpt>
      <trkpt lat="48.160390" lon="11.601633">
        <ele>505.350824</ele>
        <time>2026-08-31T22:23:40.401Z</time>
      </trkpt>
      <trkpt lat="48.160546" lon="11.601593">
        <ele>505.476981</ele>
        <time>2026-08-31T22:23:44.146Z</time>
      </trkpt>
      <trkpt lat="48.160656" lon="11.601496">
        <ele>505.404824</ele>
        <time>2026-08-31T22:23:47.156Z</time>
      </trkpt>
      <trkpt lat="48.160748" lon="11.601349">
        <ele>505.328800</ele>
        <time>2026-08-31T22:23:50.281Z</time>
      </trkpt>
      <trkpt lat="48.160784" lon="11.601382">
        <ele>505.304942</ele>
        <time>2026-08-31T22:23:51.217Z</time>
      </trkpt>
      <trkpt lat="48.161429" lon="11.601997">
        <ele>504.872741</ele>
        <time>2026-08-31T22:24:06.791Z</time>
      </trkpt>
      <trkpt lat="48.161605" lon="11.601989">
        <ele>504.773183</ele>
        <time>2026-08-31T22:24:10.157Z</time>
      </trkpt>
      <trkpt lat="48.161676" lon="11.601914">
        <ele>504.724075</ele>
        <time>2026-08-31T22:24:11.817Z</time>
      </trkpt>
      <trkpt lat="48.161779" lon="11.601673">
        <ele>504.616126</ele>
        <time>2026-08-31T22:24:15.447Z</time>
      </trkpt>
      <trkpt lat="48.161880" lon="11.601476">
        <ele>504.522418</ele>
        <time>2026-08-31T22:24:18.590Z</time>
      </trkpt>
      <trkpt lat="48.161952" lon="11.601238">
        <ele>504.443196</ele>
        <time>2026-08-31T22:24:22.273Z</time>
      </trkpt>
      <trkpt lat="48.161992" lon="11.601141">
        <ele>504.420537</ele>
        <time>2026-08-31T22:24:23.887Z</time>
      </trkpt>
      <trkpt lat="48.162055" lon="11.600978">
        <ele>504.383106</ele>
        <time>2026-08-31T22:24:26.560Z</time>
      </trkpt>
      <trkpt lat="48.162298" lon="11.600713">
        <ele>504.293597</ele>
        <time>2026-08-31T22:24:32.951Z</time>
      </trkpt>
      <trkpt lat="48.162469" lon="11.600623">
        <ele>504.239612</ele>
        <time>2026-08-31T22:24:36.887Z</time>
      </trkpt>
      <trkpt lat="48.162644" lon="11.600577">
        <ele>504.186688</ele>
        <time>2026-08-31T22:24:40.938Z</time>
      </trkpt>
      <trkpt lat="48.162913" lon="11.600719">
        <ele>504.101737</ele>
        <time>2026-08-31T22:24:48.025Z</time>
      </trkpt>
      <trkpt lat="48.163567" lon="11.600939">
        <ele>503.996435</ele>
        <time>2026-08-31T22:25:06.255Z</time>
      </trkpt>
      <trkpt lat="48.163822" lon="11.600747">
        <ele>504.209898</ele>
        <time>2026-08-31T22:25:26.089Z</time>
      </trkpt>
      <trkpt lat="48.164037" lon="11.600521">
        <ele>504.406327</ele>
        <time>2026-08-31T22:25:44.328Z</time>
      </trkpt>
      <trkpt lat="48.164126" lon="11.600269">
        <ele>504.548604</ele>
        <time>2026-08-31T22:25:49.724Z</time>
      </trkpt>
      <trkpt lat="48.164202" lon="11.600103">
        <ele>504.649067</ele>
        <time>2026-08-31T22:25:55.145Z</time>
      </trkpt>
      <trkpt lat="48.164270" lon="11.600018">
        <ele>504.715297</ele>
        <time>2026-08-31T22:25:57.411Z</time>
      </trkpt>
      <trkpt lat="48.164338" lon="11.599850">
        <ele>504.813349</ele>
        <time>2026-08-31T22:26:00.775Z</time>
      </trkpt>
      <trkpt lat="48.164385" lon="11.599828">
        <ele>504.850182</ele>
        <time>2026-08-31T22:26:02.044Z</time>
      </trkpt>
      <trkpt lat="48.164436" lon="11.599701">
        <ele>504.924149</ele>
        <time>2026-08-31T22:26:04.587Z</time>
      </trkpt>
      <trkpt lat="48.164466" lon="11.599629">
        <ele>504.966508</ele>
        <time>2026-08-31T22:26:06.000Z</time>
      </trkpt>
      <trkpt lat="48.164791" lon="11.598835">
        <ele>505.445579</ele>
        <time>2026-08-31T22:26:21.250Z</time>
      </trkpt>
      <trkpt lat="48.164834" lon="11.598746">
        <ele>505.505393</ele>
        <time>2026-08-31T22:26:23.073Z</time>
      </trkpt>
      <trkpt lat="48.164909" lon="11.598596">
        <ele>505.607426</ele>
        <time>2026-08-31T22:26:26.149Z</time>
      </trkpt>
      <trkpt lat="48.165069" lon="11.598416">
        <ele>505.770657</ele>
        <time>2026-08-31T22:26:30.893Z</time>
      </trkpt>
      <trkpt lat="48.165193" lon="11.598329">
        <ele>505.882374</ele>
        <time>2026-08-31T22:26:34.177Z</time>
      </trkpt>
      <trkpt lat="48.165233" lon="11.598301">
        <ele>505.918397</ele>
        <time>2026-08-31T22:26:35.281Z</time>
      </trkpt>
      <trkpt lat="48.165573" lon="11.598135">
        <ele>506.210181</ele>
        <time>2026-08-31T22:26:44.462Z</time>
      </trkpt>
      <trkpt lat="48.165713" lon="11.597983">
        <ele>506.351232</ele>
        <time>2026-08-31T22:26:48.994Z</time>
      </trkpt>
      <trkpt lat="48.165846" lon="11.597807">
        <ele>506.495988</ele>
        <time>2026-08-31T22:26:53.706Z</time>
      </trkpt>
      <trkpt lat="48.165896" lon="11.597741">
        <ele>506.550348</ele>
        <time>2026-08-31T22:26:55.517Z</time>
      </trkpt>
      <trkpt lat="48.165954" lon="11.597682">
        <ele>506.607542</ele>
        <time>2026-08-31T22:26:57.344Z</time>
      </trkpt>
      <trkpt lat="48.166337" lon="11.597186">
        <ele>506.999805</ele>
        <time>2026-08-31T22:27:11.117Z</time>
      </trkpt>
      <trkpt lat="48.166378" lon="11.597063">
        <ele>507.069074</ele>
        <time>2026-08-31T22:27:13.584Z</time>
      </trkpt>
      <trkpt lat="48.166470" lon="11.596944">
        <ele>507.160845</ele>
        <time>2026-08-31T22:27:16.930Z</time>
      </trkpt>
      <trkpt lat="48.166747" lon="11.596560">
        <ele>507.445781</ele>
        <time>2026-08-31T22:27:27.016Z</time>
      </trkpt>
      <trkpt lat="48.166990" lon="11.596291">
        <ele>507.673919</ele>
        <time>2026-08-31T22:27:34.828Z</time>
      </trkpt>
      <trkpt lat="48.167075" lon="11.596186">
        <ele>507.757100</ele>
        <time>2026-08-31T22:27:37.485Z</time>
      </trkpt>
      <trkpt lat="48.167578" lon="11.596447">
        <ele>508.075605</ele>
        <time>2026-08-31T22:27:49.546Z</time>
      </trkpt>
      <trkpt lat="48.167690" lon="11.596501">
        <ele>508.037509</ele>
        <time>2026-08-31T22:27:52.087Z</time>
      </trkpt>
      <trkpt lat="48.167866" lon="11.596572">
        <ele>507.978492</ele>
        <time>2026-08-31T22:27:55.965Z</time>
      </trkpt>
      <trkpt lat="48.167990" lon="11.596639">
        <ele>507.935812</ele>
        <time>2026-08-31T22:27:58.715Z</time>
      </trkpt>
      <trkpt lat="48.168734" lon="11.597035">
        <ele>507.680169</ele>
        <time>2026-08-31T22:28:14.875Z</time>
      </trkpt>
      <trkpt lat="48.168901" lon="11.597087">
        <ele>507.624940</ele>
        <time>2026-08-31T22:28:18.423Z</time>
      </trkpt>
      <trkpt lat="48.169016" lon="11.597123">
        <ele>507.586899</ele>
        <time>2026-08-31T22:28:20.928Z</time>
      </trkpt>
      <trkpt lat="48.169063" lon="11.597137">
        <ele>507.571382</ele>
        <time>2026-08-31T22:28:21.940Z</time>
      </trkpt>
      <trkpt lat="48.169172" lon="11.597165">
        <ele>507.535573</ele>
        <time>2026-08-31T22:28:24.418Z</time>
      </trkpt>
      <trkpt lat="48.169235" lon="11.597180">
        <ele>507.514907</ele>
        <time>2026-08-31T22:28:25.816Z</time>
      </trkpt>
      <trkpt lat="48.169617" lon="11.597321">
        <ele>507.387138</ele>
        <time>2026-08-31T22:28:34.079Z</time>
      </trkpt>
      <trkpt lat="48.169947" lon="11.597493">
        <ele>507.273671</ele>
        <time>2026-08-31T22:28:41.179Z</time>
      </trkpt>
      <trkpt lat="48.169995" lon="11.597519">
        <ele>507.257095</ele>
        <time>2026-08-31T22:28:42.237Z</time>
      </trkpt>
      <trkpt lat="48.169782" lon="11.598286">
        <ele>507.077134</ele>
        <time>2026-08-31T22:28:53.905Z</time>
      </trkpt>
      <trkpt lat="48.169762" lon="11.598370">
        <ele>507.057815</ele>
        <time>2026-08-31T22:28:55.162Z</time>
      </trkpt>
      <trkpt lat="48.169723" lon="11.598661">
        <ele>506.993523</ele>
        <time>2026-08-31T22:28:59.298Z</time>
      </trkpt>
      <trkpt lat="48.169745" lon="11.599103">
        <ele>506.868924</ele>
        <time>2026-08-31T22:29:05.523Z</time>
      </trkpt>
      <trkpt lat="48.169819" lon="11.599803">
        <ele>506.595374</ele>
        <time>2026-08-31T22:29:16.429Z</time>
      </trkpt>
      <trkpt lat="48.169821" lon="11.599995">
        <ele>506.521259</ele>
        <time>2026-08-31T22:29:19.378Z</time>
      </trkpt>
      <trkpt lat="48.169818" lon="11.600142">
        <ele>506.464495</ele>
        <time>2026-08-31T22:29:21.559Z</time>
      </trkpt>
      <trkpt lat="48.169750" lon="11.600422">
        <ele>506.349482</ele>
        <time>2026-08-31T22:29:25.955Z</time>
      </trkpt>
      <trkpt lat="48.169622" lon="11.600705">
        <ele>506.217503</ele>
        <time>2026-08-31T22:29:30.669Z</time>
      </trkpt>
      <trkpt lat="48.169466" lon="11.600711">
        <ele>506.127192</ele>
        <time>2026-08-31T22:29:33.717Z</time>
      </trkpt>
      <trkpt lat="48.169308" lon="11.601010">
        <ele>505.979953</ele>
        <time>2026-08-31T22:29:38.462Z</time>
      </trkpt>
      <trkpt lat="48.169158" lon="11.601321">
        <ele>505.733530</ele>
        <time>2026-08-31T22:29:43.057Z</time>
      </trkpt>
      <trkpt lat="48.169090" lon="11.601567">
        <ele>505.466084</ele>
        <time>2026-08-31T22:29:46.192Z</time>
      </trkpt>
      <trkpt lat="48.169064" lon="11.601715">
        <ele>505.312373</ele>
        <time>2026-08-31T22:29:47.989Z</time>
      </trkpt>
      <trkpt lat="48.169064" lon="11.601934">
        <ele>505.092424</ele>
        <time>2026-08-31T22:29:50.543Z</time>
      </trkpt>
      <trkpt lat="48.169026" lon="11.602056">
        <ele>504.957192</ele>
        <time>2026-08-31T22:29:52.114Z</time>
      </trkpt>
      <trkpt lat="48.169001" lon="11.602139">
        <ele>504.865725</ele>
        <time>2026-08-31T22:29:53.162Z</time>
      </trkpt>
      <trkpt lat="48.168966" lon="11.602234">
        <ele>504.756724</ele>
        <time>2026-08-31T22:29:54.412Z</time>
      </trkpt>
      <trkpt lat="48.169354" lon="11.602539">
        <ele>504.097010</ele>
        <time>2026-08-31T22:30:01.927Z</time>
      </trkpt>
      <trkpt lat="48.169655" lon="11.602801">
        <ele>503.572896</ele>
        <time>2026-08-31T22:30:08.316Z</time>
      </trkpt>
      <trkpt lat="48.169699" lon="11.602830">
        <ele>503.500518</ele>
        <time>2026-08-31T22:30:09.244Z</time>
      </trkpt>
      <trkpt lat="48.169648" lon="11.602924">
        <ele>503.378818</ele>
        <time>2026-08-31T22:30:10.817Z</time>
      </trkpt>
      <trkpt lat="48.169583" lon="11.603041">
        <ele>503.225885</ele>
        <time>2026-08-31T22:30:12.891Z</time>
      </trkpt>
      <trkpt lat="48.169539" lon="11.603116">
        <ele>503.178659</ele>
        <time>2026-08-31T22:30:14.313Z</time>
      </trkpt>
      <trkpt lat="48.169088" lon="11.603873">
        <ele>503.076033</ele>
        <time>2026-08-31T22:30:30.846Z</time>
      </trkpt>
      <trkpt lat="48.168651" lon="11.604656">
        <ele>502.972805</ele>
        <time>2026-08-31T22:30:46.616Z</time>
      </trkpt>
      <trkpt lat="48.168577" lon="11.604793">
        <ele>502.954981</ele>
        <time>2026-08-31T22:30:50.754Z</time>
      </trkpt>
      <trkpt lat="48.168366" lon="11.605143">
        <ele>502.891582</ele>
        <time>2026-08-31T22:30:57.650Z</time>
      </trkpt>
      <trkpt lat="48.168138" lon="11.605542">
        <ele>502.659318</ele>
        <time>2026-08-31T22:31:05.352Z</time>
      </trkpt>
      <trkpt lat="48.167823" lon="11.606108">
        <ele>502.333447</ele>
        <time>2026-08-31T22:31:15.758Z</time>
      </trkpt>
      <trkpt lat="48.167743" lon="11.606251">
        <ele>502.250938</ele>
        <time>2026-08-31T22:31:18.384Z</time>
      </trkpt>
      <trkpt lat="48.167696" lon="11.606344">
        <ele>502.199357</ele>
        <time>2026-08-31T22:31:20.004Z</time>
      </trkpt>
      <trkpt lat="48.167607" lon="11.606495">
        <ele>502.110276</ele>
        <time>2026-08-31T22:31:24.494Z</time>
      </trkpt>
      <trkpt lat="48.167443" lon="11.606757">
        <ele>501.951437</ele>
        <time>2026-08-31T22:31:29.983Z</time>
      </trkpt>
      <trkpt lat="48.167613" lon="11.607028">
        <ele>501.786976</ele>
        <time>2026-08-31T22:31:35.401Z</time>
      </trkpt>
      <trkpt lat="48.167667" lon="11.607226">
        <ele>501.744144</ele>
        <time>2026-08-31T22:31:38.719Z</time>
      </trkpt>
      <trkpt lat="48.167628" lon="11.607682">
        <ele>501.924946</ele>
        <time>2026-08-31T22:31:46.384Z</time>
      </trkpt>
      <trkpt lat="48.167455" lon="11.608078">
        <ele>502.111120</ele>
        <time>2026-08-31T22:31:54.620Z</time>
      </trkpt>
      <trkpt lat="48.167239" lon="11.608504">
        <ele>502.321574</ele>
        <time>2026-08-31T22:32:03.702Z</time>
      </trkpt>
      <trkpt lat="48.167046" lon="11.608766">
        <ele>502.475095</ele>
        <time>2026-08-31T22:32:10.595Z</time>
      </trkpt>
      <trkpt lat="48.166780" lon="11.609263">
        <ele>502.725708</ele>
        <time>2026-08-31T22:32:21.287Z</time>
      </trkpt>
      <trkpt lat="48.166728" lon="11.609425">
        <ele>502.775234</ele>
        <time>2026-08-31T22:32:24.122Z</time>
      </trkpt>
      <trkpt lat="48.166707" lon="11.609615">
        <ele>502.750925</ele>
        <time>2026-08-31T22:32:27.119Z</time>
      </trkpt>
      <trkpt lat="48.166732" lon="11.609963">
        <ele>502.706747</ele>
        <time>2026-08-31T22:32:32.476Z</time>
      </trkpt>
      <trkpt lat="48.167202" lon="11.610783">
        <ele>502.570282</ele>
        <time>2026-08-31T22:32:49.651Z</time>
      </trkpt>
      <trkpt lat="48.167375" lon="11.611034">
        <ele>502.524724</ele>
        <time>2026-08-31T22:32:55.120Z</time>
      </trkpt>
      <trkpt lat="48.167686" lon="11.611384">
        <ele>502.451136</ele>
        <time>2026-08-31T22:33:03.842Z</time>
      </trkpt>
      <trkpt lat="48.167998" lon="11.611868">
        <ele>502.286145</ele>
        <time>2026-08-31T22:33:14.206Z</time>
      </trkpt>
      <trkpt lat="48.168118" lon="11.612151">
        <ele>502.197932</ele>
        <time>2026-08-31T22:33:19.522Z</time>
      </trkpt>
      <trkpt lat="48.168202" lon="11.612556">
        <ele>502.086366</ele>
        <time>2026-08-31T22:33:26.347Z</time>
      </trkpt>
      <trkpt lat="48.168232" lon="11.612857">
        <ele>502.006311</ele>
        <time>2026-08-31T22:33:31.281Z</time>
      </trkpt>
      <trkpt lat="48.168132" lon="11.614062">
        <ele>501.571280</ele>
        <time>2026-08-31T22:33:50.064Z</time>
      </trkpt>
      <trkpt lat="48.168190" lon="11.614519">
        <ele>501.125278</ele>
        <time>2026-08-31T22:33:56.992Z</time>
      </trkpt>
      <trkpt lat="48.168371" lon="11.614744">
        <ele>500.787300</ele>
        <time>2026-08-31T22:34:01.543Z</time>
      </trkpt>
      <trkpt lat="48.168889" lon="11.615202">
        <ele>499.922856</ele>
        <time>2026-08-31T22:34:12.603Z</time>
      </trkpt>
      <trkpt lat="48.168904" lon="11.615211">
        <ele>499.899632</ele>
        <time>2026-08-31T22:34:12.901Z</time>
      </trkpt>
      <trkpt lat="48.169004" lon="11.615287">
        <ele>499.738471</ele>
        <time>2026-08-31T22:34:14.890Z</time>
      </trkpt>
      <trkpt lat="48.169286" lon="11.615480">
        <ele>499.292867</ele>
        <time>2026-08-31T22:34:20.277Z</time>
      </trkpt>
      <trkpt lat="48.170083" lon="11.616012">
        <ele>497.415755</ele>
        <time>2026-08-31T22:34:35.042Z</time>
      </trkpt>
      <trkpt lat="48.170231" lon="11.616142">
        <ele>497.030331</ele>
        <time>2026-08-31T22:34:37.934Z</time>
      </trkpt>
      <trkpt lat="48.170467" lon="11.616391">
        <ele>496.381900</ele>
        <time>2026-08-31T22:34:43.440Z</time>
      </trkpt>
      <trkpt lat="48.170843" lon="11.616716">
        <ele>495.406685</ele>
        <time>2026-08-31T22:34:51.895Z</time>
      </trkpt>
      <trkpt lat="48.171216" lon="11.616990">
        <ele>495.057357</ele>
        <time>2026-08-31T22:35:00.351Z</time>
      </trkpt>
      <trkpt lat="48.171767" lon="11.617352">
        <ele>494.958475</ele>
        <time>2026-08-31T22:35:14.308Z</time>
      </trkpt>
      <trkpt lat="48.172433" lon="11.617701">
        <ele>494.842510</ele>
        <time>2026-08-31T22:35:33.135Z</time>
      </trkpt>
      <trkpt lat="48.173392" lon="11.618041">
        <ele>495.524734</ele>
        <time>2026-08-31T22:36:01.894Z</time>
      </trkpt>
      <trkpt lat="48.173766" lon="11.618091">
        <ele>495.872413</ele>
        <time>2026-08-31T22:36:12.908Z</time>
      </trkpt>
      <trkpt lat="48.174398" lon="11.617981">
        <ele>496.461542</ele>
        <time>2026-08-31T22:36:30.752Z</time>
      </trkpt>
      <trkpt lat="48.174640" lon="11.617969">
        <ele>496.518643</ele>
        <time>2026-08-31T22:36:37.123Z</time>
      </trkpt>
      <trkpt lat="48.174753" lon="11.617963">
        <ele>496.541007</ele>
        <time>2026-08-31T22:36:40.123Z</time>
      </trkpt>
      <trkpt lat="48.175037" lon="11.617989">
        <ele>496.597284</ele>
        <time>2026-08-31T22:36:47.707Z</time>
      </trkpt>
      <trkpt lat="48.175310" lon="11.618110">
        <ele>496.653590</ele>
        <time>2026-08-31T22:36:55.331Z</time>
      </trkpt>
      <trkpt lat="48.175584" lon="11.618356">
        <ele>496.716755</ele>
        <time>2026-08-31T22:37:03.396Z</time>
      </trkpt>
      <trkpt lat="48.176041" lon="11.619038">
        <ele>496.789737</ele>
        <time>2026-08-31T22:37:18.665Z</time>
      </trkpt>
      <trkpt lat="48.176328" lon="11.619463">
        <ele>496.584571</ele>
        <time>2026-08-31T22:37:27.923Z</time>
      </trkpt>
      <trkpt lat="48.176533" lon="11.619664">
        <ele>496.459987</ele>
        <time>2026-08-31T22:37:33.529Z</time>
      </trkpt>
      <trkpt lat="48.177500" lon="11.620423">
        <ele>495.912655</ele>
        <time>2026-08-31T22:37:58.046Z</time>
      </trkpt>
      <trkpt lat="48.177944" lon="11.620641">
        <ele>495.875326</ele>
        <time>2026-08-31T22:38:09.216Z</time>
      </trkpt>
      <trkpt lat="48.178448" lon="11.620962">
        <ele>495.831575</ele>
        <time>2026-08-31T22:38:23.030Z</time>
      </trkpt>
      <trkpt lat="48.178987" lon="11.621342">
        <ele>495.783988</ele>
        <time>2026-08-31T22:38:38.399Z</time>
      </trkpt>
      <trkpt lat="48.179231" lon="11.621573">
        <ele>495.709670</ele>
        <time>2026-08-31T22:38:45.498Z</time>
      </trkpt>
      <trkpt lat="48.179438" lon="11.621875">
        <ele>495.561709</ele>
        <time>2026-08-31T22:38:52.233Z</time>
      </trkpt>
      <trkpt lat="48.179820" lon="11.622534">
        <ele>495.263397</ele>
        <time>2026-08-31T22:39:05.299Z</time>
      </trkpt>
      <trkpt lat="48.179852" lon="11.622592">
        <ele>495.237679</ele>
        <time>2026-08-31T22:39:06.420Z</time>
      </trkpt>
      <trkpt lat="48.180075" lon="11.622990">
        <ele>495.060080</ele>
        <time>2026-08-31T22:39:14.195Z</time>
      </trkpt>
      <trkpt lat="48.180173" lon="11.623165">
        <ele>494.982008</ele>
        <time>2026-08-31T22:39:17.606Z</time>
      </trkpt>
      <trkpt lat="48.180351" lon="11.623429">
        <ele>494.853746</ele>
        <time>2026-08-31T22:39:23.227Z</time>
      </trkpt>
      <trkpt lat="48.180561" lon="11.623709">
        <ele>494.759110</ele>
        <time>2026-08-31T22:39:29.614Z</time>
      </trkpt>
      <trkpt lat="48.180900" lon="11.623893">
        <ele>494.639907</ele>
        <time>2026-08-31T22:39:37.976Z</time>
      </trkpt>
      <trkpt lat="48.181737" lon="11.623785">
        <ele>494.362134</ele>
        <time>2026-08-31T22:39:58.894Z</time>
      </trkpt>
      <trkpt lat="48.182281" lon="11.623715">
        <ele>494.185336</ele>
        <time>2026-08-31T22:40:11.402Z</time>
      </trkpt>
      <trkpt lat="48.182701" lon="11.623572">
        <ele>494.050260</ele>
        <time>2026-08-31T22:40:20.998Z</time>
      </trkpt>
      <trkpt lat="48.182734" lon="11.623533">
        <ele>494.037083</ele>
        <time>2026-08-31T22:40:21.953Z</time>
      </trkpt>
      <trkpt lat="48.182933" lon="11.623298">
        <ele>493.957646</ele>
        <time>2026-08-31T22:40:27.653Z</time>
      </trkpt>
      <trkpt lat="48.183321" lon="11.622877">
        <ele>493.807452</ele>
        <time>2026-08-31T22:40:38.741Z</time>
      </trkpt>
      <trkpt lat="48.183363" lon="11.622748">
        <ele>493.777432</ele>
        <time>2026-08-31T22:40:40.767Z</time>
      </trkpt>
      <trkpt lat="48.183379" lon="11.622683">
        <ele>493.762943</ele>
        <time>2026-08-31T22:40:41.898Z</time>
      </trkpt>
      <trkpt lat="48.183310" lon="11.622295">
        <ele>493.721956</ele>
        <time>2026-08-31T22:40:48.485Z</time>
      </trkpt>
      <trkpt lat="48.183332" lon="11.621933">
        <ele>493.940700</ele>
        <time>2026-08-31T22:40:54.984Z</time>
      </trkpt>
      <trkpt lat="48.183505" lon="11.621277">
        <ele>494.365217</ele>
        <time>2026-08-31T22:41:08.763Z</time>
      </trkpt>
      <trkpt lat="48.183658" lon="11.620693">
        <ele>494.742806</ele>
        <time>2026-08-31T22:41:21.389Z</time>
      </trkpt>
      <trkpt lat="48.183874" lon="11.619684">
        <ele>495.397013</ele>
        <time>2026-08-31T22:41:41.408Z</time>
      </trkpt>
      <trkpt lat="48.184769" lon="11.619311">
        <ele>496.441513</ele>
        <time>2026-08-31T22:42:05.981Z</time>
      </trkpt>
      <trkpt lat="48.184945" lon="11.619294">
        <ele>496.639824</ele>
        <time>2026-08-31T22:42:10.700Z</time>
      </trkpt>
      <trkpt lat="48.185114" lon="11.619461">
        <ele>496.867389</ele>
        <time>2026-08-31T22:42:16.079Z</time>
      </trkpt>
      <trkpt lat="48.185195" lon="11.619567">
        <ele>496.988263</ele>
        <time>2026-08-31T22:42:18.999Z</time>
      </trkpt>
      <trkpt lat="48.185226" lon="11.619605">
        <ele>497.033281</ele>
        <time>2026-08-31T22:42:20.099Z</time>
      </trkpt>
      <trkpt lat="48.185171" lon="11.620027">
        <ele>497.354456</ele>
        <time>2026-08-31T22:42:32.268Z</time>
      </trkpt>
      <trkpt lat="48.185186" lon="11.620406">
        <ele>497.622060</ele>
        <time>2026-08-31T22:42:43.118Z</time>
      </trkpt>
      <trkpt lat="48.185258" lon="11.620603">
        <ele>497.780407</ele>
        <time>2026-08-31T22:42:49.618Z</time>
      </trkpt>
      <trkpt lat="48.185350" lon="11.620692">
        <ele>497.896141</ele>
        <time>2026-08-31T22:42:54.346Z</time>
      </trkpt>
      <trkpt lat="48.185626" lon="11.620908">
        <ele>498.225249</ele>
        <time>2026-08-31T22:43:07.718Z</time>
      </trkpt>
      <trkpt lat="48.185805" lon="11.621022">
        <ele>498.430834</ele>
        <time>2026-08-31T22:43:15.787Z</time>
      </trkpt>
      <trkpt lat="48.185881" lon="11.621018">
        <ele>498.511228</ele>
        <time>2026-08-31T22:43:18.919Z</time>
      </trkpt>
      <trkpt lat="48.186098" lon="11.620348">
        <ele>499.036235</ele>
        <time>2026-08-31T22:43:31.558Z</time>
      </trkpt>
      <trkpt lat="48.186065" lon="11.620306">
        <ele>499.081988</ele>
        <time>2026-08-31T22:43:32.658Z</time>
      </trkpt>
      <trkpt lat="48.185996" lon="11.620249">
        <ele>499.165264</ele>
        <time>2026-08-31T22:43:38.071Z</time>
      </trkpt>
      <trkpt lat="48.185996" lon="11.620249">
        <ele>499.165264</ele>
        <time>2026-08-31T22:43:38.071Z</time>
      </trkpt>
      <trkpt lat="48.185996" lon="11.620249">
        <ele>499.165264</ele>
        <time>2026-08-31T22:43:38.071Z</time>
      </trkpt>
      <trkpt lat="48.186065" lon="11.620306">
        <ele>499.231977</ele>
        <time>2026-08-31T22:43:43.483Z</time>
      </trkpt>
      <trkpt lat="48.186098" lon="11.620348">
        <ele>499.210131</ele>
        <time>2026-08-31T22:43:44.558Z</time>
      </trkpt>
      <trkpt lat="48.186359" lon="11.620574">
        <ele>499.058011</ele>
        <time>2026-08-31T22:43:51.709Z</time>
      </trkpt>
      <trkpt lat="48.186726" lon="11.620878">
        <ele>498.846391</ele>
        <time>2026-08-31T22:44:00.917Z</time>
      </trkpt>
      <trkpt lat="48.186936" lon="11.621052">
        <ele>498.725293</ele>
        <time>2026-08-31T22:44:05.847Z</time>
      </trkpt>
      <trkpt lat="48.187005" lon="11.621108">
        <ele>498.685693</ele>
        <time>2026-08-31T22:44:07.460Z</time>
      </trkpt>
      <trkpt lat="48.187271" lon="11.621327">
        <ele>498.532529</ele>
        <time>2026-08-31T22:44:13.365Z</time>
      </trkpt>
      <trkpt lat="48.188127" lon="11.622087">
        <ele>497.677802</ele>
        <time>2026-08-31T22:44:31.365Z</time>
      </trkpt>
      <trkpt lat="48.190727" lon="11.624300">
        <ele>495.041998</ele>
        <time>2026-08-31T22:45:29.889Z</time>
      </trkpt>
      <trkpt lat="48.190779" lon="11.624340">
        <ele>495.053960</ele>
        <time>2026-08-31T22:45:31.192Z</time>
      </trkpt>
      <trkpt lat="48.190800" lon="11.624261">
        <ele>495.084756</ele>
        <time>2026-08-31T22:45:32.466Z</time>
      </trkpt>
      <trkpt lat="48.190939" lon="11.623771">
        <ele>495.277583</ele>
        <time>2026-08-31T22:45:40.514Z</time>
      </trkpt>
      <trkpt lat="48.191200" lon="11.622865">
        <ele>495.634968</ele>
        <time>2026-08-31T22:45:56.916Z</time>
      </trkpt>
      <trkpt lat="48.191238" lon="11.622728">
        <ele>495.688698</ele>
        <time>2026-08-31T22:45:59.568Z</time>
      </trkpt>
      <trkpt lat="48.191282" lon="11.622564">
        <ele>495.752711</ele>
        <time>2026-08-31T22:46:02.653Z</time>
      </trkpt>
      <trkpt lat="48.191549" lon="11.621417">
        <ele>496.353490</ele>
        <time>2026-08-31T22:46:23.963Z</time>
      </trkpt>
      <trkpt lat="48.191568" lon="11.621318">
        <ele>496.423222</ele>
        <time>2026-08-31T22:46:25.807Z</time>
      </trkpt>
      <trkpt lat="48.191609" lon="11.621113">
        <ele>496.568093</ele>
        <time>2026-08-31T22:46:29.724Z</time>
      </trkpt>
      <trkpt lat="48.191636" lon="11.620982">
        <ele>496.660906</ele>
        <time>2026-08-31T22:46:32.277Z</time>
      </trkpt>
      <trkpt lat="48.191661" lon="11.620855">
        <ele>496.750539</ele>
        <time>2026-08-31T22:46:34.763Z</time>
      </trkpt>
      <trkpt lat="48.191989" lon="11.619287">
        <ele>497.838427</ele>
        <time>2026-08-31T22:47:03.643Z</time>
      </trkpt>
      <trkpt lat="48.192008" lon="11.619198">
        <ele>497.848370</ele>
        <time>2026-08-31T22:47:05.165Z</time>
      </trkpt>
      <trkpt lat="48.192051" lon="11.619220">
        <ele>497.855621</ele>
        <time>2026-08-31T22:47:06.300Z</time>
      </trkpt>
      <trkpt lat="48.192072" lon="11.619120">
        <ele>497.866776</ele>
        <time>2026-08-31T22:47:11.149Z</time>
      </trkpt>
      <trkpt lat="48.192125" lon="11.618873">
        <ele>497.894383</ele>
        <time>2026-08-31T22:47:23.210Z</time>
      </trkpt>
      <trkpt lat="48.192208" lon="11.618912">
        <ele>497.908264</ele>
        <time>2026-08-31T22:47:29.248Z</time>
      </trkpt>
      <trkpt lat="48.192125" lon="11.618873">
        <ele>497.922145</ele>
        <time>2026-08-31T22:47:35.287Z</time>
      </trkpt>
      <trkpt lat="48.192072" lon="11.619120">
        <ele>497.949752</ele>
        <time>2026-08-31T22:47:47.348Z</time>
      </trkpt>
      <trkpt lat="48.192051" lon="11.619220">
        <ele>497.960907</ele>
        <time>2026-08-31T22:47:52.196Z</time>
      </trkpt>
      <trkpt lat="48.192008" lon="11.619198">
        <ele>497.968158</ele>
        <time>2026-08-31T22:47:53.204Z</time>
      </trkpt>
      <trkpt lat="48.192014" lon="11.619167">
        <ele>497.971592</ele>
        <time>2026-08-31T22:47:53.697Z</time>
      </trkpt>
      <trkpt lat="48.192280" lon="11.617931">
        <ele>498.109777</ele>
        <time>2026-08-31T22:48:12.718Z</time>
      </trkpt>
      <trkpt lat="48.192336" lon="11.617950">
        <ele>498.118940</ele>
        <time>2026-08-31T22:48:14.020Z</time>
      </trkpt>
      <trkpt lat="48.192379" lon="11.617964">
        <ele>498.113559</ele>
        <time>2026-08-31T22:48:15.024Z</time>
      </trkpt>
      <trkpt lat="48.192399" lon="11.617887">
        <ele>498.100722</ele>
        <time>2026-08-31T22:48:16.215Z</time>
      </trkpt>
      <trkpt lat="48.192541" lon="11.617948">
        <ele>498.066302</ele>
        <time>2026-08-31T22:48:19.407Z</time>
      </trkpt>
      <trkpt lat="48.192557" lon="11.617863">
        <ele>498.052581</ele>
        <time>2026-08-31T22:48:20.685Z</time>
      </trkpt>
      <trkpt lat="48.192653" lon="11.617371">
        <ele>497.972945</ele>
        <time>2026-08-31T22:48:27.935Z</time>
      </trkpt>
      <trkpt lat="48.192795" lon="11.616690">
        <ele>497.862101</ele>
        <time>2026-08-31T22:48:37.895Z</time>
      </trkpt>
      <trkpt lat="48.192807" lon="11.616631">
        <ele>497.852518</ele>
        <time>2026-08-31T22:48:38.764Z</time>
      </trkpt>
      <trkpt lat="48.192808" lon="11.616627">
        <ele>497.851855</ele>
        <time>2026-08-31T22:48:38.834Z</time>
      </trkpt>
      <trkpt lat="48.192814" lon="11.616597">
        <ele>497.846989</ele>
        <time>2026-08-31T22:48:39.397Z</time>
      </trkpt>
      <trkpt lat="48.192856" lon="11.616397">
        <ele>497.814415</ele>
        <time>2026-08-31T22:48:43.285Z</time>
      </trkpt>
      <trkpt lat="48.192910" lon="11.616145">
        <ele>497.773296</ele>
        <time>2026-08-31T22:48:48.105Z</time>
      </trkpt>
      <trkpt lat="48.192939" lon="11.616156">
        <ele>497.766325</ele>
        <time>2026-08-31T22:48:48.711Z</time>
      </trkpt>
      <trkpt lat="48.192946" lon="11.616159">
        <ele>497.764629</ele>
        <time>2026-08-31T22:48:48.848Z</time>
      </trkpt>
      <trkpt lat="48.193274" lon="11.616294">
        <ele>497.742071</ele>
        <time>2026-08-31T22:48:56.089Z</time>
      </trkpt>
      <trkpt lat="48.193312" lon="11.616240">
        <ele>497.772014</ele>
        <time>2026-08-31T22:48:57.314Z</time>
      </trkpt>
      <trkpt lat="48.193413" lon="11.615789">
        <ele>497.953438</ele>
        <time>2026-08-31T22:49:04.881Z</time>
      </trkpt>
      <trkpt lat="48.193422" lon="11.615747">
        <ele>497.970260</ele>
        <time>2026-08-31T22:49:05.528Z</time>
      </trkpt>
      <trkpt lat="48.193560" lon="11.615098">
        <ele>498.230027</ele>
        <time>2026-08-31T22:49:16.536Z</time>
      </trkpt>
      <trkpt lat="48.193569" lon="11.615055">
        <ele>498.247213</ele>
        <time>2026-08-31T22:49:17.258Z</time>
      </trkpt>
      <trkpt lat="48.193707" lon="11.614417">
        <ele>498.502985</ele>
        <time>2026-08-31T22:49:29.264Z</time>
      </trkpt>
      <trkpt lat="48.193717" lon="11.614376">
        <ele>498.519633</ele>
        <time>2026-08-31T22:49:30.114Z</time>
      </trkpt>
      <trkpt lat="48.193666" lon="11.614350">
        <ele>498.550445</ele>
        <time>2026-08-31T22:49:31.650Z</time>
      </trkpt>
      <trkpt lat="48.193679" lon="11.614310">
        <ele>498.567415</ele>
        <time>2026-08-31T22:49:32.550Z</time>
      </trkpt>
      <trkpt lat="48.193848" lon="11.613777">
        <ele>498.798138</ele>
        <time>2026-08-31T22:49:43.797Z</time>
      </trkpt>
      <trkpt lat="48.193858" lon="11.613744">
        <ele>498.813226</ele>
        <time>2026-08-31T22:49:44.473Z</time>
      </trkpt>
      <trkpt lat="48.193914" lon="11.613542">
        <ele>498.904283</ele>
        <time>2026-08-31T22:49:48.575Z</time>
      </trkpt>
      <trkpt lat="48.193925" lon="11.613505">
        <ele>498.921145</ele>
        <time>2026-08-31T22:49:49.340Z</time>
      </trkpt>
      <trkpt lat="48.193992" lon="11.613198">
        <ele>499.055598</ele>
        <time>2026-08-31T22:49:55.210Z</time>
      </trkpt>
      <trkpt lat="48.193993" lon="11.613133">
        <ele>499.082660</ele>
        <time>2026-08-31T22:49:56.292Z</time>
      </trkpt>
      <trkpt lat="48.194075" lon="11.612767">
        <ele>499.243370</ele>
        <time>2026-08-31T22:50:02.541Z</time>
      </trkpt>
      <trkpt lat="48.194091" lon="11.612701">
        <ele>499.272600</ele>
        <time>2026-08-31T22:50:03.634Z</time>
      </trkpt>
      <trkpt lat="48.194280" lon="11.611854">
        <ele>499.644363</ele>
        <time>2026-08-31T22:50:18.484Z</time>
      </trkpt>
      <trkpt lat="48.194579" lon="11.610519">
        <ele>499.754655</ele>
        <time>2026-08-31T22:50:38.694Z</time>
      </trkpt>
      <trkpt lat="48.194600" lon="11.610451">
        <ele>499.746457</ele>
        <time>2026-08-31T22:50:39.782Z</time>
      </trkpt>
      <trkpt lat="48.194630" lon="11.610355">
        <ele>499.734857</ele>
        <time>2026-08-31T22:50:41.306Z</time>
      </trkpt>
      <trkpt lat="48.194784" lon="11.609678">
        <ele>499.656600</ele>
        <time>2026-08-31T22:50:51.559Z</time>
      </trkpt>
      <trkpt lat="48.194886" lon="11.609230">
        <ele>499.604808</ele>
        <time>2026-08-31T22:50:58.167Z</time>
      </trkpt>
      <trkpt lat="48.194949" lon="11.608951">
        <ele>499.572582</ele>
        <time>2026-08-31T22:51:02.217Z</time>
      </trkpt>
      <trkpt lat="48.195014" lon="11.608986">
        <ele>499.561248</ele>
        <time>2026-08-31T22:51:03.612Z</time>
      </trkpt>
      <trkpt lat="48.195098" lon="11.608997">
        <ele>499.587506</ele>
        <time>2026-08-31T22:51:05.356Z</time>
      </trkpt>
      <trkpt lat="48.195670" lon="11.609297">
        <ele>499.847069</ele>
        <time>2026-08-31T22:51:19.168Z</time>
      </trkpt>
      <trkpt lat="48.196023" lon="11.609484">
        <ele>500.007429</ele>
        <time>2026-08-31T22:51:28.621Z</time>
      </trkpt>
      <trkpt lat="48.196248" lon="11.609604">
        <ele>500.109719</ele>
        <time>2026-08-31T22:51:34.617Z</time>
      </trkpt>
      <trkpt lat="48.196365" lon="11.609663">
        <ele>500.162592</ele>
        <time>2026-08-31T22:51:37.762Z</time>
      </trkpt>
      <trkpt lat="48.196432" lon="11.609697">
        <ele>500.192889</ele>
        <time>2026-08-31T22:51:39.539Z</time>
      </trkpt>
      <trkpt lat="48.196507" lon="11.609736">
        <ele>500.226891</ele>
        <time>2026-08-31T22:51:41.550Z</time>
      </trkpt>
      <trkpt lat="48.196574" lon="11.609770">
        <ele>500.257189</ele>
        <time>2026-08-31T22:51:43.332Z</time>
      </trkpt>
      <trkpt lat="48.196916" lon="11.609947">
        <ele>500.314892</ele>
        <time>2026-08-31T22:51:52.534Z</time>
      </trkpt>
      <trkpt lat="48.197306" lon="11.610145">
        <ele>500.285030</ele>
        <time>2026-08-31T22:52:02.959Z</time>
      </trkpt>
      <trkpt lat="48.197459" lon="11.610224">
        <ele>500.273294</ele>
        <time>2026-08-31T22:52:06.912Z</time>
      </trkpt>
      <trkpt lat="48.197587" lon="11.610288">
        <ele>500.263508</ele>
        <time>2026-08-31T22:52:10.010Z</time>
      </trkpt>
      <trkpt lat="48.197731" lon="11.610361">
        <ele>500.252484</ele>
        <time>2026-08-31T22:52:13.325Z</time>
      </trkpt>
      <trkpt lat="48.197909" lon="11.610451">
        <ele>500.238860</ele>
        <time>2026-08-31T22:52:17.277Z</time>
      </trkpt>
      <trkpt lat="48.198198" lon="11.610608">
        <ele>500.216567</ele>
        <time>2026-08-31T22:52:23.410Z</time>
      </trkpt>
      <trkpt lat="48.198437" lon="11.610738">
        <ele>500.191682</ele>
        <time>2026-08-31T22:52:28.294Z</time>
      </trkpt>
      <trkpt lat="48.198782" lon="11.611017">
        <ele>499.697650</ele>
        <time>2026-08-31T22:52:35.592Z</time>
      </trkpt>
      <trkpt lat="48.198903" lon="11.611120">
        <ele>499.522288</ele>
        <time>2026-08-31T22:52:38.143Z</time>
      </trkpt>
      <trkpt lat="48.199178" lon="11.611347">
        <ele>499.126643</ele>
        <time>2026-08-31T22:52:43.905Z</time>
      </trkpt>
      <trkpt lat="48.199520" lon="11.611481">
        <ele>498.681090</ele>
        <time>2026-08-31T22:52:50.433Z</time>
      </trkpt>
      <trkpt lat="48.199563" lon="11.611568">
        <ele>498.590091</ele>
        <time>2026-08-31T22:52:51.777Z</time>
      </trkpt>
      <trkpt lat="48.199631" lon="11.611616">
        <ele>498.495363</ele>
        <time>2026-08-31T22:52:53.247Z</time>
      </trkpt>
      <trkpt lat="48.199733" lon="11.611657">
        <ele>498.362256</ele>
        <time>2026-08-31T22:52:55.303Z</time>
      </trkpt>
      <trkpt lat="48.199825" lon="11.611693">
        <ele>498.242409</ele>
        <time>2026-08-31T22:52:57.164Z</time>
      </trkpt>
      <trkpt lat="48.199849" lon="11.611523">
        <ele>498.096411</ele>
        <time>2026-08-31T22:52:59.342Z</time>
      </trkpt>
      <trkpt lat="48.200748" lon="11.611842">
        <ele>497.252555</ele>
        <time>2026-08-31T22:53:17.153Z</time>
      </trkpt>
      <trkpt lat="48.200837" lon="11.611872">
        <ele>497.174461</ele>
        <time>2026-08-31T22:53:18.992Z</time>
      </trkpt>
      <trkpt lat="48.200904" lon="11.611895">
        <ele>497.115618</ele>
        <time>2026-08-31T22:53:20.377Z</time>
      </trkpt>
      <trkpt lat="48.201008" lon="11.611890">
        <ele>497.026535</ele>
        <time>2026-08-31T22:53:22.452Z</time>
      </trkpt>
      <trkpt lat="48.201301" lon="11.611856">
        <ele>496.774941</ele>
        <time>2026-08-31T22:53:28.283Z</time>
      </trkpt>
      <trkpt lat="48.201375" lon="11.611788">
        <ele>496.700649</ele>
        <time>2026-08-31T22:53:29.986Z</time>
      </trkpt>
      <trkpt lat="48.201447" lon="11.611778">
        <ele>496.638744</ele>
        <time>2026-08-31T22:53:31.412Z</time>
      </trkpt>
      <trkpt lat="48.201763" lon="11.611782">
        <ele>496.376084</ele>
        <time>2026-08-31T22:53:37.648Z</time>
      </trkpt>
      <trkpt lat="48.201775" lon="11.611786">
        <ele>496.369130</ele>
        <time>2026-08-31T22:53:37.902Z</time>
      </trkpt>
      <trkpt lat="48.201802" lon="11.611795">
        <ele>496.353482</ele>
        <time>2026-08-31T22:53:38.437Z</time>
      </trkpt>
      <trkpt lat="48.201968" lon="11.611878">
        <ele>496.254492</ele>
        <time>2026-08-31T22:53:42.008Z</time>
      </trkpt>
      <trkpt lat="48.202030" lon="11.611917">
        <ele>496.216458</ele>
        <time>2026-08-31T22:53:43.426Z</time>
      </trkpt>
      <trkpt lat="48.202064" lon="11.611937">
        <ele>496.195797</ele>
        <time>2026-08-31T22:53:44.171Z</time>
      </trkpt>
      <trkpt lat="48.202193" lon="11.612011">
        <ele>496.117665</ele>
        <time>2026-08-31T22:53:47.050Z</time>
      </trkpt>
      <trkpt lat="48.202262" lon="11.612050">
        <ele>496.075950</ele>
        <time>2026-08-31T22:53:48.576Z</time>
      </trkpt>
      <trkpt lat="48.202357" lon="11.612103">
        <ele>496.018610</ele>
        <time>2026-08-31T22:53:50.672Z</time>
      </trkpt>
      <trkpt lat="48.202510" lon="11.612194">
        <ele>495.925498</ele>
        <time>2026-08-31T22:53:54.051Z</time>
      </trkpt>
      <trkpt lat="48.202670" lon="11.612290">
        <ele>495.828011</ele>
        <time>2026-08-31T22:53:57.577Z</time>
      </trkpt>
      <trkpt lat="48.202825" lon="11.612385">
        <ele>495.733287</ele>
        <time>2026-08-31T22:54:01.002Z</time>
      </trkpt>
      <trkpt lat="48.202924" lon="11.612447">
        <ele>495.672595</ele>
        <time>2026-08-31T22:54:03.192Z</time>
      </trkpt>
      <trkpt lat="48.203115" lon="11.612557">
        <ele>495.556852</ele>
        <time>2026-08-31T22:54:07.300Z</time>
      </trkpt>
      <trkpt lat="48.203135" lon="11.612569">
        <ele>495.544666</ele>
        <time>2026-08-31T22:54:07.751Z</time>
      </trkpt>
      <trkpt lat="48.203183" lon="11.612593">
        <ele>495.516042</ele>
        <time>2026-08-31T22:54:08.774Z</time>
      </trkpt>
      <trkpt lat="48.203276" lon="11.612639">
        <ele>495.460643</ele>
        <time>2026-08-31T22:54:10.762Z</time>
      </trkpt>
      <trkpt lat="48.203297" lon="11.612648">
        <ele>495.448287</ele>
        <time>2026-08-31T22:54:11.216Z</time>
      </trkpt>
      <trkpt lat="48.203574" lon="11.612758">
        <ele>495.328143</ele>
        <time>2026-08-31T22:54:17.075Z</time>
      </trkpt>
      <trkpt lat="48.203644" lon="11.612786">
        <ele>495.306768</ele>
        <time>2026-08-31T22:54:18.591Z</time>
      </trkpt>
      <trkpt lat="48.203740" lon="11.612824">
        <ele>495.277474</ele>
        <time>2026-08-31T22:54:20.674Z</time>
      </trkpt>
      <trkpt lat="48.204095" lon="11.612947">
        <ele>495.169974</ele>
        <time>2026-08-31T22:54:28.113Z</time>
      </trkpt>
      <trkpt lat="48.206148" lon="11.613734">
        <ele>494.779802</ele>
        <time>2026-08-31T22:55:13.917Z</time>
      </trkpt>
      <trkpt lat="48.207364" lon="11.614181">
        <ele>494.435422</ele>
        <time>2026-08-31T22:55:42.184Z</time>
      </trkpt>
      <trkpt lat="48.207409" lon="11.614230">
        <ele>494.400121</ele>
        <time>2026-08-31T22:55:43.316Z</time>
      </trkpt>
      <trkpt lat="48.207955" lon="11.614341">
        <ele>494.050298</ele>
        <time>2026-08-31T22:55:54.334Z</time>
      </trkpt>
      <trkpt lat="48.208149" lon="11.614638">
        <ele>493.874336</ele>
        <time>2026-08-31T22:55:59.650Z</time>
      </trkpt>
      <trkpt lat="48.208256" lon="11.614678">
        <ele>493.804325</ele>
        <time>2026-08-31T22:56:01.746Z</time>
      </trkpt>
      <trkpt lat="48.208312" lon="11.614700">
        <ele>493.767572</ele>
        <time>2026-08-31T22:56:02.852Z</time>
      </trkpt>
      <trkpt lat="48.209265" lon="11.615059">
        <ele>493.280103</ele>
        <time>2026-08-31T22:56:21.532Z</time>
      </trkpt>
      <trkpt lat="48.209900" lon="11.615365">
        <ele>492.986489</ele>
        <time>2026-08-31T22:56:35.679Z</time>
      </trkpt>
      <trkpt lat="48.210095" lon="11.615449">
        <ele>492.897175</ele>
        <time>2026-08-31T22:56:40.368Z</time>
      </trkpt>
      <trkpt lat="48.210604" lon="11.615688">
        <ele>492.925158</ele>
        <time>2026-08-31T22:56:53.081Z</time>
      </trkpt>
      <trkpt lat="48.210654" lon="11.615668">
        <ele>492.946955</ele>
        <time>2026-08-31T22:56:54.341Z</time>
      </trkpt>
      <trkpt lat="48.210685" lon="11.615644">
        <ele>492.961648</ele>
        <time>2026-08-31T22:56:55.214Z</time>
      </trkpt>
      <trkpt lat="48.210709" lon="11.615615">
        <ele>492.974627</ele>
        <time>2026-08-31T22:56:55.974Z</time>
      </trkpt>
      <trkpt lat="48.210758" lon="11.615507">
        <ele>493.011302</ele>
        <time>2026-08-31T22:56:58.119Z</time>
      </trkpt>
      <trkpt lat="48.210982" lon="11.615155">
        <ele>493.147922</ele>
        <time>2026-08-31T22:57:07.199Z</time>
      </trkpt>
      <trkpt lat="48.210973" lon="11.615049">
        <ele>493.177916</ele>
        <time>2026-08-31T22:57:10.077Z</time>
      </trkpt>
      <trkpt lat="48.210982" lon="11.615155">
        <ele>493.207911</ele>
        <time>2026-08-31T22:57:12.907Z</time>
      </trkpt>
      <trkpt lat="48.211177" lon="11.615178">
        <ele>493.290302</ele>
        <time>2026-08-31T22:57:18.347Z</time>
      </trkpt>
      <trkpt lat="48.211381" lon="11.615214">
        <ele>493.376823</ele>
        <time>2026-08-31T22:57:23.907Z</time>
      </trkpt>
      <trkpt lat="48.211807" lon="11.615365">
        <ele>493.552001</ele>
        <time>2026-08-31T22:57:34.878Z</time>
      </trkpt>
      <trkpt lat="48.212318" lon="11.615492">
        <ele>493.479558</ele>
        <time>2026-08-31T22:57:47.430Z</time>
      </trkpt>
      <trkpt lat="48.212458" lon="11.615483">
        <ele>493.459960</ele>
        <time>2026-08-31T22:57:50.843Z</time>
      </trkpt>
      <trkpt lat="48.212709" lon="11.615376">
        <ele>493.423466</ele>
        <time>2026-08-31T22:57:57.192Z</time>
      </trkpt>
      <trkpt lat="48.213320" lon="11.614926">
        <ele>493.328273</ele>
        <time>2026-08-31T22:58:13.344Z</time>
      </trkpt>
      <trkpt lat="48.213894" lon="11.614442">
        <ele>493.009182</ele>
        <time>2026-08-31T22:58:29.169Z</time>
      </trkpt>
      <trkpt lat="48.214234" lon="11.614042">
        <ele>492.742636</ele>
        <time>2026-08-31T22:58:38.837Z</time>
      </trkpt>
      <trkpt lat="48.214204" lon="11.613953">
        <ele>492.701631</ele>
        <time>2026-08-31T22:58:40.242Z</time>
      </trkpt>
      <trkpt lat="48.214234" lon="11.614042">
        <ele>492.660626</ele>
        <time>2026-08-31T22:58:41.676Z</time>
      </trkpt>
      <trkpt lat="48.214564" lon="11.613910">
        <ele>492.449916</ele>
        <time>2026-08-31T22:58:48.894Z</time>
      </trkpt>
      <trkpt lat="48.214937" lon="11.613852">
        <ele>492.218553</ele>
        <time>2026-08-31T22:58:57.168Z</time>
      </trkpt>
      <trkpt lat="48.215131" lon="11.613700">
        <ele>492.287268</ele>
        <time>2026-08-31T22:59:02.304Z</time>
      </trkpt>
      <trkpt lat="48.215289" lon="11.613386">
        <ele>492.426520</ele>
        <time>2026-08-31T22:59:08.711Z</time>
      </trkpt>
      <trkpt lat="48.215321" lon="11.613256">
        <ele>492.475566</ele>
        <time>2026-08-31T22:59:11.053Z</time>
      </trkpt>
      <trkpt lat="48.215328" lon="11.612837">
        <ele>492.623898</ele>
        <time>2026-08-31T22:59:18.269Z</time>
      </trkpt>
      <trkpt lat="48.215307" lon="11.612338">
        <ele>492.800847</ele>
        <time>2026-08-31T22:59:27.539Z</time>
      </trkpt>
      <trkpt lat="48.215257" lon="11.611854">
        <ele>492.974183</ele>
        <time>2026-08-31T22:59:37.340Z</time>
      </trkpt>
      <trkpt lat="48.215111" lon="11.610863">
        <ele>493.347348</ele>
        <time>2026-08-31T22:59:57.860Z</time>
      </trkpt>
      <trkpt lat="48.215030" lon="11.610026">
        <ele>493.669280</ele>
        <time>2026-08-31T23:00:13.494Z</time>
      </trkpt>
      <trkpt lat="48.215221" lon="11.608560">
        <ele>494.142185</ele>
        <time>2026-08-31T23:00:38.811Z</time>
      </trkpt>
      <trkpt lat="48.215694" lon="11.605550">
        <ele>493.436193</ele>
        <time>2026-08-31T23:01:26.968Z</time>
      </trkpt>
      <trkpt lat="48.215863" lon="11.603615">
        <ele>492.790367</ele>
        <time>2026-08-31T23:01:56.198Z</time>
      </trkpt>
      <trkpt lat="48.215871" lon="11.603455">
        <ele>492.737269</ele>
        <time>2026-08-31T23:01:58.695Z</time>
      </trkpt>
      <trkpt lat="48.217753" lon="11.603158">
        <ele>492.645284</ele>
        <time>2026-08-31T23:03:09.386Z</time>
      </trkpt>
      <trkpt lat="48.218392" lon="11.602784">
        <ele>492.522988</ele>
        <time>2026-08-31T23:03:34.476Z</time>
      </trkpt>
      <trkpt lat="48.218966" lon="11.602522">
        <ele>492.416010</ele>
        <time>2026-08-31T23:03:56.066Z</time>
      </trkpt>
      <trkpt lat="48.219489" lon="11.602583">
        <ele>492.298582</ele>
        <time>2026-08-31T23:04:14.885Z</time>
      </trkpt>
      <trkpt lat="48.219907" lon="11.602514">
        <ele>492.105233</ele>
        <time>2026-08-31T23:04:30.045Z</time>
      </trkpt>
      <trkpt lat="48.221049" lon="11.602612">
        <ele>491.579302</ele>
        <time>2026-08-31T23:05:10.751Z</time>
      </trkpt>
      <trkpt lat="48.222255" lon="11.601864">
        <ele>490.505539</ele>
        <time>2026-08-31T23:05:55.235Z</time>
      </trkpt>
      <trkpt lat="48.223616" lon="11.602027">
        <ele>489.889925</ele>
        <time>2026-08-31T23:06:41.482Z</time>
      </trkpt>
      <trkpt lat="48.223801" lon="11.602118">
        <ele>489.874765</ele>
        <time>2026-08-31T23:06:48.672Z</time>
      </trkpt>
      <trkpt lat="48.223965" lon="11.602150">
        <ele>489.861887</ele>
        <time>2026-08-31T23:06:54.936Z</time>
      </trkpt>
      <trkpt lat="48.224336" lon="11.601486">
        <ele>489.816930</ele>
        <time>2026-08-31T23:07:10.570Z</time>
      </trkpt>
      <trkpt lat="48.224727" lon="11.600929">
        <ele>490.021042</ele>
        <time>2026-08-31T23:07:25.996Z</time>
      </trkpt>
      <trkpt lat="48.224501" lon="11.600541">
        <ele>490.205524</ele>
        <time>2026-08-31T23:07:35.853Z</time>
      </trkpt>
      <trkpt lat="48.224398" lon="11.600321">
        <ele>490.301774</ele>
        <time>2026-08-31T23:07:40.761Z</time>
      </trkpt>
      <trkpt lat="48.224372" lon="11.600264">
        <ele>490.326502</ele>
        <time>2026-08-31T23:07:42.010Z</time>
      </trkpt>
      <trkpt lat="48.224341" lon="11.600142">
        <ele>490.373241</ele>
        <time>2026-08-31T23:07:44.313Z</time>
      </trkpt>
      <trkpt lat="48.224322" lon="11.599951">
        <ele>490.442368</ele>
        <time>2026-08-31T23:07:47.706Z</time>
      </trkpt>
      <trkpt lat="48.224384" lon="11.599037">
        <ele>490.771228</ele>
        <time>2026-08-31T23:08:03.128Z</time>
      </trkpt>
      <trkpt lat="48.224425" lon="11.598832">
        <ele>490.809225</ele>
        <time>2026-08-31T23:08:06.679Z</time>
      </trkpt>
      <trkpt lat="48.224604" lon="11.598330">
        <ele>490.908569</ele>
        <time>2026-08-31T23:08:16.089Z</time>
      </trkpt>
      <trkpt lat="48.224561" lon="11.597819">
        <ele>490.998434</ele>
        <time>2026-08-31T23:08:24.709Z</time>
      </trkpt>
      <trkpt lat="48.224817" lon="11.592927">
        <ele>491.891490</ele>
        <time>2026-08-31T23:09:50.551Z</time>
      </trkpt>
      <trkpt lat="48.224840" lon="11.592835">
        <ele>491.889876</ele>
        <time>2026-08-31T23:09:52.266Z</time>
      </trkpt>
      <trkpt lat="48.224899" lon="11.592758">
        <ele>491.887949</ele>
        <time>2026-08-31T23:09:54.263Z</time>
      </trkpt>
      <trkpt lat="48.225086" lon="11.592682">
        <ele>491.883173</ele>
        <time>2026-08-31T23:09:59.145Z</time>
      </trkpt>
      <trkpt lat="48.225214" lon="11.592565">
        <ele>491.879479</ele>
        <time>2026-08-31T23:10:02.817Z</time>
      </trkpt>
      <trkpt lat="48.225287" lon="11.592480">
        <ele>491.877202</ele>
        <time>2026-08-31T23:10:05.056Z</time>
      </trkpt>
      <trkpt lat="48.225306" lon="11.592302">
        <ele>491.874241</ele>
        <time>2026-08-31T23:10:07.618Z</time>
      </trkpt>
      <trkpt lat="48.225378" lon="11.592514">
        <ele>491.870333</ele>
        <time>2026-08-31T23:10:10.971Z</time>
      </trkpt>
      <trkpt lat="48.225985" lon="11.593559">
        <ele>491.667098</ele>
        <time>2026-08-31T23:10:29.999Z</time>
      </trkpt>
      <trkpt lat="48.226351" lon="11.594257">
        <ele>491.446269</ele>
        <time>2026-08-31T23:10:41.972Z</time>
      </trkpt>
      <trkpt lat="48.226731" lon="11.595143">
        <ele>491.185690</ele>
        <time>2026-08-31T23:10:57.104Z</time>
      </trkpt>
      <trkpt lat="48.226903" lon="11.595568">
        <ele>491.097523</ele>
        <time>2026-08-31T23:11:04.357Z</time>
      </trkpt>
      <trkpt lat="48.227070" lon="11.595891">
        <ele>491.025032</ele>
        <time>2026-08-31T23:11:10.254Z</time>
      </trkpt>
      <trkpt lat="48.227432" lon="11.596493">
        <ele>490.881248</ele>
        <time>2026-08-31T23:11:21.596Z</time>
      </trkpt>
      <trkpt lat="48.227706" lon="11.596830">
        <ele>490.786974</ele>
        <time>2026-08-31T23:11:28.912Z</time>
      </trkpt>
      <trkpt lat="48.227945" lon="11.597073">
        <ele>490.710581</ele>
        <time>2026-08-31T23:11:35.009Z</time>
      </trkpt>
      <trkpt lat="48.228453" lon="11.597492">
        <ele>490.790049</ele>
        <time>2026-08-31T23:11:47.816Z</time>
      </trkpt>
      <trkpt lat="48.229051" lon="11.597829">
        <ele>490.877621</ele>
        <time>2026-08-31T23:12:03.114Z</time>
      </trkpt>
      <trkpt lat="48.229973" lon="11.598185">
        <ele>490.775100</ele>
        <time>2026-08-31T23:12:24.942Z</time>
      </trkpt>
      <trkpt lat="48.230090" lon="11.598307">
        <ele>490.705585</ele>
        <time>2026-08-31T23:12:27.936Z</time>
      </trkpt>
      <trkpt lat="48.230190" lon="11.598334">
        <ele>490.656004</ele>
        <time>2026-08-31T23:12:30.045Z</time>
      </trkpt>
      <trkpt lat="48.230283" lon="11.598361">
        <ele>490.609782</ele>
        <time>2026-08-31T23:12:31.988Z</time>
      </trkpt>
      <trkpt lat="48.230357" lon="11.598379">
        <ele>490.573201</ele>
        <time>2026-08-31T23:12:33.509Z</time>
      </trkpt>
      <trkpt lat="48.230580" lon="11.598591">
        <ele>490.444397</ele>
        <time>2026-08-31T23:12:38.813Z</time>
      </trkpt>
      <trkpt lat="48.230689" lon="11.598391">
        <ele>490.360400</ele>
        <time>2026-08-31T23:12:42.207Z</time>
      </trkpt>
      <trkpt lat="48.230765" lon="11.598366">
        <ele>490.322433</ele>
        <time>2026-08-31T23:12:43.707Z</time>
      </trkpt>
      <trkpt lat="48.231073" lon="11.598444">
        <ele>490.170014</ele>
        <time>2026-08-31T23:12:49.733Z</time>
      </trkpt>
      <trkpt lat="48.231349" lon="11.598602">
        <ele>490.030653</ele>
        <time>2026-08-31T23:12:55.493Z</time>
      </trkpt>
      <trkpt lat="48.231616" lon="11.598601">
        <ele>489.912015</ele>
        <time>2026-08-31T23:13:00.856Z</time>
      </trkpt>
      <trkpt lat="48.234286" lon="11.599294">
        <ele>488.830253</ele>
        <time>2026-08-31T23:13:58.047Z</time>
      </trkpt>
      <trkpt lat="48.235038" lon="11.599548">
        <ele>488.584886</ele>
        <time>2026-08-31T23:14:13.995Z</time>
      </trkpt>
      <trkpt lat="48.236064" lon="11.599822">
        <ele>488.316912</ele>
        <time>2026-08-31T23:14:36.009Z</time>
      </trkpt>
      <trkpt lat="48.236493" lon="11.599887">
        <ele>488.206036</ele>
        <time>2026-08-31T23:14:45.475Z</time>
      </trkpt>
      <trkpt lat="48.241843" lon="11.601335">
        <ele>487.621799</ele>
        <time>2026-08-31T23:16:44.709Z</time>
      </trkpt>
      <trkpt lat="48.242158" lon="11.601420">
        <ele>487.470944</ele>
        <time>2026-08-31T23:16:51.489Z</time>
      </trkpt>
      <trkpt lat="48.243863" lon="11.601882">
        <ele>486.594824</ele>
        <time>2026-08-31T23:17:26.640Z</time>
      </trkpt>
      <trkpt lat="48.244579" lon="11.602106">
        <ele>486.198747</ele>
        <time>2026-08-31T23:17:41.367Z</time>
      </trkpt>
      <trkpt lat="48.244624" lon="11.602087">
        <ele>486.173432</ele>
        <time>2026-08-31T23:17:42.334Z</time>
      </trkpt>
      <trkpt lat="48.244740" lon="11.602073">
        <ele>486.110409</ele>
        <time>2026-08-31T23:17:44.682Z</time>
      </trkpt>
      <trkpt lat="48.244834" lon="11.602122">
        <ele>486.056523</ele>
        <time>2026-08-31T23:17:46.723Z</time>
      </trkpt>
      <trkpt lat="48.245091" lon="11.602341">
        <ele>485.896496</ele>
        <time>2026-08-31T23:17:52.786Z</time>
      </trkpt>
      <trkpt lat="48.245104" lon="11.602382">
        <ele>485.880119</ele>
        <time>2026-08-31T23:17:53.391Z</time>
      </trkpt>
      <trkpt lat="48.245282" lon="11.602322">
        <ele>485.781324</ele>
        <time>2026-08-31T23:17:57.223Z</time>
      </trkpt>
      <trkpt lat="48.245394" lon="11.602324">
        <ele>485.731881</ele>
        <time>2026-08-31T23:17:59.587Z</time>
      </trkpt>
      <trkpt lat="48.246298" lon="11.602475">
        <ele>485.470676</ele>
        <time>2026-08-31T23:18:18.731Z</time>
      </trkpt>
      <trkpt lat="48.246234" lon="11.603107">
        <ele>485.348425</ele>
        <time>2026-08-31T23:18:27.613Z</time>
      </trkpt>
      <trkpt lat="48.246137" lon="11.604069">
        <ele>485.251499</ele>
        <time>2026-08-31T23:18:41.578Z</time>
      </trkpt>
      <trkpt lat="48.246138" lon="11.604880">
        <ele>485.306949</ele>
        <time>2026-08-31T23:18:53.820Z</time>
      </trkpt>
      <trkpt lat="48.245930" lon="11.605999">
        <ele>485.386383</ele>
        <time>2026-08-31T23:19:11.740Z</time>
      </trkpt>
      <trkpt lat="48.246017" lon="11.606115">
        <ele>485.398329</ele>
        <time>2026-08-31T23:19:14.725Z</time>
      </trkpt>
      <trkpt lat="48.246287" lon="11.606839">
        <ele>485.401466</ele>
        <time>2026-08-31T23:19:28.638Z</time>
      </trkpt>
      <trkpt lat="48.246415" lon="11.607182">
        <ele>485.394342</ele>
        <time>2026-08-31T23:19:35.198Z</time>
      </trkpt>
      <trkpt lat="48.246790" lon="11.607386">
        <ele>485.383491</ele>
        <time>2026-08-31T23:19:44.939Z</time>
      </trkpt>
      <trkpt lat="48.247013" lon="11.607463">
        <ele>485.377266</ele>
        <time>2026-08-31T23:19:50.507Z</time>
      </trkpt>
      <trkpt lat="48.247081" lon="11.607465">
        <ele>485.375415</ele>
        <time>2026-08-31T23:19:51.981Z</time>
      </trkpt>
      <trkpt lat="48.247176" lon="11.607535">
        <ele>485.372536</ele>
        <time>2026-08-31T23:19:54.298Z</time>
      </trkpt>
      <trkpt lat="48.247227" lon="11.607645">
        <ele>485.370108</ele>
        <time>2026-08-31T23:19:56.253Z</time>
      </trkpt>
      <trkpt lat="48.247239" lon="11.607722">
        <ele>485.368675</ele>
        <time>2026-08-31T23:19:59.925Z</time>
      </trkpt>
      <trkpt lat="48.246971" lon="11.608622">
        <ele>485.338498</ele>
        <time>2026-08-31T23:20:45.552Z</time>
      </trkpt>
      <trkpt lat="48.246776" lon="11.609274">
        <ele>485.313228</ele>
        <time>2026-08-31T23:21:18.614Z</time>
      </trkpt>
      <trkpt lat="48.246736" lon="11.609247">
        <ele>485.310900</ele>
        <time>2026-08-31T23:21:21.681Z</time>
      </trkpt>
      <trkpt lat="48.246446" lon="11.610242">
        <ele>485.272500</ele>
        <time>2026-08-31T23:21:37.679Z</time>
      </trkpt>
      <trkpt lat="48.246360" lon="11.610537">
        <ele>485.271016</ele>
        <time>2026-08-31T23:21:42.643Z</time>
      </trkpt>
      <trkpt lat="48.246268" lon="11.610860">
        <ele>485.275790</ele>
        <time>2026-08-31T23:21:48.143Z</time>
      </trkpt>
      <trkpt lat="48.246269" lon="11.610955">
        <ele>485.277081</ele>
        <time>2026-08-31T23:21:49.639Z</time>
      </trkpt>
      <trkpt lat="48.246347" lon="11.611195">
        <ele>485.280711</ele>
        <time>2026-08-31T23:21:53.845Z</time>
      </trkpt>
      <trkpt lat="48.246491" lon="11.611360">
        <ele>485.284407</ele>
        <time>2026-08-31T23:21:58.090Z</time>
      </trkpt>
      <trkpt lat="48.246511" lon="11.611370">
        <ele>485.284837</ele>
        <time>2026-08-31T23:21:58.597Z</time>
      </trkpt>
      <trkpt lat="48.246662" lon="11.611450">
        <ele>485.288105</ele>
        <time>2026-08-31T23:22:02.284Z</time>
      </trkpt>
      <trkpt lat="48.246906" lon="11.611595">
        <ele>485.293460</ele>
        <time>2026-08-31T23:22:08.233Z</time>
      </trkpt>
      <trkpt lat="48.247223" lon="11.611792">
        <ele>485.300461</ele>
        <time>2026-08-31T23:22:15.409Z</time>
      </trkpt>
      <trkpt lat="48.247301" lon="11.611891">
        <ele>485.302545</ele>
        <time>2026-08-31T23:22:17.537Z</time>
      </trkpt>
      <trkpt lat="48.247606" lon="11.612426">
        <ele>485.185822</ele>
        <time>2026-08-31T23:22:27.308Z</time>
      </trkpt>
      <trkpt lat="48.247736" lon="11.612556">
        <ele>485.132660</ele>
        <time>2026-08-31T23:22:30.592Z</time>
      </trkpt>
      <trkpt lat="48.247830" lon="11.612629">
        <ele>485.096640</ele>
        <time>2026-08-31T23:22:32.790Z</time>
      </trkpt>
      <trkpt lat="48.248046" lon="11.612700">
        <ele>485.021378</ele>
        <time>2026-08-31T23:22:37.497Z</time>
      </trkpt>
      <trkpt lat="48.248044" lon="11.612753">
        <ele>485.009346</ele>
        <time>2026-08-31T23:22:38.223Z</time>
      </trkpt>
      <trkpt lat="48.248044" lon="11.612773">
        <ele>485.004813</ele>
        <time>2026-08-31T23:22:38.495Z</time>
      </trkpt>
      <trkpt lat="48.247647" lon="11.614178">
        <ele>484.644222</ele>
        <time>2026-08-31T23:22:59.980Z</time>
      </trkpt>
      <trkpt lat="48.247246" lon="11.615550">
        <ele>484.157754</ele>
        <time>2026-08-31T23:23:20.532Z</time>
      </trkpt>
      <trkpt lat="48.247218" lon="11.615606">
        <ele>484.135017</ele>
        <time>2026-08-31T23:23:21.451Z</time>
      </trkpt>
      <trkpt lat="48.247128" lon="11.615638">
        <ele>484.089924</ele>
        <time>2026-08-31T23:23:23.246Z</time>
      </trkpt>
      <trkpt lat="48.247043" lon="11.616716">
        <ele>483.801670</ele>
        <time>2026-08-31T23:23:37.688Z</time>
      </trkpt>
      <trkpt lat="48.246837" lon="11.619027">
        <ele>483.664961</ele>
        <time>2026-08-31T23:24:12.294Z</time>
      </trkpt>
      <trkpt lat="48.246901" lon="11.619090">
        <ele>483.658224</ele>
        <time>2026-08-31T23:24:14.142Z</time>
      </trkpt>
      <trkpt lat="48.247703" lon="11.619085">
        <ele>483.875680</ele>
        <time>2026-08-31T23:24:32.662Z</time>
      </trkpt>
      <trkpt lat="48.247995" lon="11.619078">
        <ele>483.956023</ele>
        <time>2026-08-31T23:24:39.521Z</time>
      </trkpt>
      <trkpt lat="48.248369" lon="11.619061">
        <ele>484.058962</ele>
        <time>2026-08-31T23:24:48.334Z</time>
      </trkpt>
      <trkpt lat="48.248422" lon="11.619035">
        <ele>484.074301</ele>
        <time>2026-08-31T23:24:49.678Z</time>
      </trkpt>
      <trkpt lat="48.248490" lon="11.619198">
        <ele>484.109539</ele>
        <time>2026-08-31T23:24:52.705Z</time>
      </trkpt>
      <trkpt lat="48.248569" lon="11.619167">
        <ele>484.132003</ele>
        <time>2026-08-31T23:24:54.639Z</time>
      </trkpt>
      <trkpt lat="48.248845" lon="11.619165">
        <ele>484.198288</ele>
        <time>2026-08-31T23:25:01.274Z</time>
      </trkpt>
      <trkpt lat="48.249636" lon="11.619324">
        <ele>484.379788</ele>
        <time>2026-08-31T23:25:20.376Z</time>
      </trkpt>
      <trkpt lat="48.249801" lon="11.619388">
        <ele>484.418545</ele>
        <time>2026-08-31T23:25:24.438Z</time>
      </trkpt>
      <trkpt lat="48.249929" lon="11.619478">
        <ele>484.450689</ele>
        <time>2026-08-31T23:25:27.744Z</time>
      </trkpt>
      <trkpt lat="48.250024" lon="11.619508">
        <ele>484.472767</ele>
        <time>2026-08-31T23:25:29.997Z</time>
      </trkpt>
      <trkpt lat="48.250146" lon="11.619512">
        <ele>484.500520</ele>
        <time>2026-08-31T23:25:32.783Z</time>
      </trkpt>
      <trkpt lat="48.250518" lon="11.619532">
        <ele>484.479346</ele>
        <time>2026-08-31T23:25:40.977Z</time>
      </trkpt>
      <trkpt lat="48.250812" lon="11.619649">
        <ele>484.241377</ele>
        <time>2026-08-31T23:25:47.277Z</time>
      </trkpt>
      <trkpt lat="48.250930" lon="11.619696">
        <ele>484.145861</ele>
        <time>2026-08-31T23:25:49.713Z</time>
      </trkpt>
      <trkpt lat="48.251238" lon="11.619832">
        <ele>483.894677</ele>
        <time>2026-08-31T23:25:55.929Z</time>
      </trkpt>
      <trkpt lat="48.251343" lon="11.619881">
        <ele>483.808649</ele>
        <time>2026-08-31T23:25:58.002Z</time>
      </trkpt>
      <trkpt lat="48.252013" lon="11.620170">
        <ele>483.263240</ele>
        <time>2026-08-31T23:26:11.202Z</time>
      </trkpt>
      <trkpt lat="48.252177" lon="11.620244">
        <ele>483.144487</ele>
        <time>2026-08-31T23:26:14.487Z</time>
      </trkpt>
      <trkpt lat="48.252676" lon="11.620479">
        <ele>482.986536</ele>
        <time>2026-08-31T23:26:24.971Z</time>
      </trkpt>
      <trkpt lat="48.252675" lon="11.620571">
        <ele>482.968032</ele>
        <time>2026-08-31T23:26:26.255Z</time>
      </trkpt>
      <trkpt lat="48.252741" lon="11.620662">
        <ele>482.940971</ele>
        <time>2026-08-31T23:26:28.107Z</time>
      </trkpt>
      <trkpt lat="48.252796" lon="11.620657">
        <ele>482.924329</ele>
        <time>2026-08-31T23:26:29.272Z</time>
      </trkpt>
      <trkpt lat="48.252852" lon="11.620568">
        <ele>482.899703</ele>
        <time>2026-08-31T23:26:30.955Z</time>
      </trkpt>
      <trkpt lat="48.253385" lon="11.620807">
        <ele>482.731696</ele>
        <time>2026-08-31T23:26:43.397Z</time>
      </trkpt>
      <trkpt lat="48.253650" lon="11.620931">
        <ele>482.647863</ele>
        <time>2026-08-31T23:26:49.861Z</time>
      </trkpt>
      <trkpt lat="48.254114" lon="11.621149">
        <ele>482.370776</ele>
        <time>2026-08-31T23:27:01.017Z</time>
      </trkpt>
      <trkpt lat="48.254301" lon="11.621235">
        <ele>482.241633</ele>
        <time>2026-08-31T23:27:05.247Z</time>
      </trkpt>
      <trkpt lat="48.254313" lon="11.621333">
        <ele>482.197822</ele>
        <time>2026-08-31T23:27:06.646Z</time>
      </trkpt>
      <trkpt lat="48.254373" lon="11.621377">
        <ele>482.153731</ele>
        <time>2026-08-31T23:27:08.009Z</time>
      </trkpt>
      <trkpt lat="48.254396" lon="11.621370">
        <ele>482.138234</ele>
        <time>2026-08-31T23:27:08.468Z</time>
      </trkpt>
      <trkpt lat="48.254443" lon="11.621288">
        <ele>482.090663</ele>
        <time>2026-08-31T23:27:09.914Z</time>
      </trkpt>
      <trkpt lat="48.254478" lon="11.621308">
        <ele>482.065934</ele>
        <time>2026-08-31T23:27:11.194Z</time>
      </trkpt>
      <trkpt lat="48.254765" lon="11.621465">
        <ele>481.864237</ele>
        <time>2026-08-31T23:27:21.504Z</time>
      </trkpt>
      <trkpt lat="48.255170" lon="11.621552">
        <ele>481.594076</ele>
        <time>2026-08-31T23:27:35.270Z</time>
      </trkpt>
      <trkpt lat="48.255366" lon="11.621753">
        <ele>481.437357</ele>
        <time>2026-08-31T23:27:43.160Z</time>
      </trkpt>
      <trkpt lat="48.255574" lon="11.621859">
        <ele>481.230849</ele>
        <time>2026-08-31T23:27:50.340Z</time>
      </trkpt>
      <trkpt lat="48.255676" lon="11.621962">
        <ele>481.111540</ele>
        <time>2026-08-31T23:27:54.387Z</time>
      </trkpt>
      <trkpt lat="48.255749" lon="11.622062">
        <ele>481.015632</ele>
        <time>2026-08-31T23:28:01.235Z</time>
      </trkpt>
      <trkpt lat="48.255913" lon="11.622148">
        <ele>480.847013</ele>
        <time>2026-08-31T23:28:13.360Z</time>
      </trkpt>
      <trkpt lat="48.256119" lon="11.622210">
        <ele>480.643073</ele>
        <time>2026-08-31T23:28:27.923Z</time>
      </trkpt>
      <trkpt lat="48.256365" lon="11.622283">
        <ele>480.399664</ele>
        <time>2026-08-31T23:28:45.361Z</time>
      </trkpt>
      <trkpt lat="48.257714" lon="11.622980">
        <ele>479.149601</ele>
        <time>2026-08-31T23:30:24.504Z</time>
      </trkpt>
      <trkpt lat="48.259269" lon="11.623147">
        <ele>478.039292</ele>
        <time>2026-08-31T23:32:12.844Z</time>
      </trkpt>
      <trkpt lat="48.260390" lon="11.623166">
        <ele>477.413417</ele>
        <time>2026-08-31T23:33:30.762Z</time>
      </trkpt>
      <trkpt lat="48.261158" lon="11.623179">
        <ele>477.233407</ele>
        <time>2026-08-31T23:34:24.105Z</time>
      </trkpt>
      <trkpt lat="48.262804" lon="11.623175">
        <ele>477.154845</ele>
        <time>2026-08-31T23:36:18.503Z</time>
      </trkpt>
      <trkpt lat="48.264087" lon="11.623182">
        <ele>477.280810</ele>
        <time>2026-08-31T23:37:47.696Z</time>
      </trkpt>
      <trkpt lat="48.266276" lon="11.623191">
        <ele>476.847498</ele>
        <time>2026-08-31T23:40:19.826Z</time>
      </trkpt>
      <trkpt lat="48.266479" lon="11.623192">
        <ele>476.783695</ele>
        <time>2026-08-31T23:40:33.962Z</time>
      </trkpt>
      <trkpt lat="48.266507" lon="11.622591">
        <ele>476.657647</ele>
        <time>2026-08-31T23:41:01.823Z</time>
      </trkpt>
      <trkpt lat="48.266552" lon="11.622447">
        <ele>476.624365</ele>
        <time>2026-08-31T23:41:09.174Z</time>
      </trkpt>
      <trkpt lat="48.266648" lon="11.622271">
        <ele>476.576760</ele>
        <time>2026-08-31T23:41:19.686Z</time>
      </trkpt>
      <trkpt lat="48.266823" lon="11.622159">
        <ele>476.516974</ele>
        <time>2026-08-31T23:41:32.910Z</time>
      </trkpt>
      <trkpt lat="48.268671" lon="11.622063">
        <ele>476.100821</ele>
        <time>2026-08-31T23:43:41.419Z</time>
      </trkpt>
      <trkpt lat="48.270262" lon="11.622035">
        <ele>475.969562</ele>
        <time>2026-08-31T23:45:31.995Z</time>
      </trkpt>
      <trkpt lat="48.270271" lon="11.622207">
        <ele>475.964948</ele>
        <time>2026-08-31T23:45:34.810Z</time>
      </trkpt>
      <trkpt lat="48.270372" lon="11.623451">
        <ele>475.940530</ele>
        <time>2026-08-31T23:45:55.110Z</time>
      </trkpt>
      <trkpt lat="48.270493" lon="11.626103">
        <ele>475.978126</ele>
        <time>2026-08-31T23:46:38.761Z</time>
      </trkpt>
      <trkpt lat="48.270577" lon="11.626020">
        <ele>475.997571</ele>
        <time>2026-08-31T23:46:42.660Z</time>
      </trkpt>
      <trkpt lat="48.270902" lon="11.625908">
        <ele>476.062059</ele>
        <time>2026-08-31T23:46:55.584Z</time>
      </trkpt>
      <trkpt lat="48.271589" lon="11.625489">
        <ele>476.205457</ele>
        <time>2026-08-31T23:47:24.358Z</time>
      </trkpt>
      <trkpt lat="48.272034" lon="11.625269">
        <ele>476.227488</ele>
        <time>2026-08-31T23:47:41.847Z</time>
      </trkpt>
      <trkpt lat="48.272811" lon="11.624802">
        <ele>475.894777</ele>
        <time>2026-08-31T23:48:11.450Z</time>
      </trkpt>
      <trkpt lat="48.273229" lon="11.624761">
        <ele>475.728240</ele>
        <time>2026-08-31T23:48:26.024Z</time>
      </trkpt>
      <trkpt lat="48.277657" lon="11.622225">
        <ele>473.908014</ele>
        <time>2026-08-31T23:51:14.744Z</time>
      </trkpt>
      <trkpt lat="48.277981" lon="11.622075">
        <ele>473.782658</ele>
        <time>2026-08-31T23:51:26.921Z</time>
      </trkpt>
      <trkpt lat="48.278533" lon="11.621738">
        <ele>473.562353</ele>
        <time>2026-08-31T23:51:48.367Z</time>
      </trkpt>
      <trkpt lat="48.278692" lon="11.621651">
        <ele>473.498401</ele>
        <time>2026-08-31T23:51:54.448Z</time>
      </trkpt>
      <trkpt lat="48.280899" lon="11.620437">
        <ele>472.212079</ele>
        <time>2026-08-31T23:53:17.672Z</time>
      </trkpt>
      <trkpt lat="48.281037" lon="11.620330">
        <ele>472.074662</ele>
        <time>2026-08-31T23:53:22.824Z</time>
      </trkpt>
      <trkpt lat="48.281195" lon="11.620052">
        <ele>471.859372</ele>
        <time>2026-08-31T23:53:30.915Z</time>
      </trkpt>
      <trkpt lat="48.281608" lon="11.619840">
        <ele>471.473167</ele>
        <time>2026-08-31T23:53:45.390Z</time>
      </trkpt>
      <trkpt lat="48.281783" lon="11.619783">
        <ele>471.314711</ele>
        <time>2026-08-31T23:53:51.365Z</time>
      </trkpt>
      <trkpt lat="48.282576" lon="11.619889">
        <ele>470.898575</ele>
        <time>2026-08-31T23:54:09.129Z</time>
      </trkpt>
      <trkpt lat="48.283282" lon="11.620050">
        <ele>470.619760</ele>
        <time>2026-08-31T23:54:26.639Z</time>
      </trkpt>
      <trkpt lat="48.286344" lon="11.620767">
        <ele>469.470861</ele>
        <time>2026-08-31T23:55:39.590Z</time>
      </trkpt>
      <trkpt lat="48.288290" lon="11.621109">
        <ele>468.648689</ele>
        <time>2026-08-31T23:56:23.895Z</time>
      </trkpt>
      <trkpt lat="48.289402" lon="11.621305">
        <ele>468.352241</ele>
        <time>2026-08-31T23:56:50.919Z</time>
      </trkpt>
      <trkpt lat="48.290356" lon="11.621888">
        <ele>468.352241</ele>
        <time>2026-08-31T23:57:19.520Z</time>
      </trkpt>
      <trkpt lat="48.290586" lon="11.622022">
        <ele>468.352241</ele>
        <time>2026-08-31T23:57:26.221Z</time>
      </trkpt>
      <trkpt lat="48.290856" lon="11.622186">
        <ele>468.352241</ele>
        <time>2026-08-31T23:57:33.978Z</time>
      </trkpt>
      <trkpt lat="48.290991" lon="11.622283">
        <ele>468.352241</ele>
        <time>2026-08-31T23:57:37.890Z</time>
      </trkpt>
      <trkpt lat="48.291099" lon="11.622356">
        <ele>468.352241</ele>
        <time>2026-08-31T23:57:40.922Z</time>
      </trkpt>
    </trkseg>
  </trk>
</gpx>